AFR56T LFPG-KLAS
Flight info
| Callsign | AFR56T |
|---|---|
| Flight time | 10h 18m |
| Altitude | 38000 |
| Route | ATREX DCT VESAN DCT RATUK DCT SOVAT DCT LESTA UP6 RODOL UM65 TENSO L603 BELOX DCT AMCON DCT TUXOS DCT GOMUP/M084F380 DCT 59N020W 59N030W/M084F400 59N040W 59N050W DCT URTAK/N0499F400 DCT LAKES DCT KLIPS DCT GRAND DCT YRL DCT KP21C DCT KP15A/N0491F430 DCT KP06Y DCT KD87W DCT KD78U DCT CKW DCT BCE BLAID2 |
| Aircraft | A359/H-SDE2E3GHIJ3J4J5LM1ORWXY/LB1D1 |
Departure
| Time | 2026-05-08 11:51 |
|---|---|
| Airport | Charles de Gaulle International Airport (LFPG) |
Arrival
| Time | 2026-05-08 22:09 |
|---|---|
| Airport | Harry Reid International Airport (KLAS) |
| Time | Latitude | Longitude | Altitude | Speed | Heading |
|---|---|---|---|---|---|
| 2026-05-08 11:17 | 49.00115 | 2.57431 | 361 ft | 0 kts | 13° |
| 2026-05-08 11:40 | 49.00098 | 2.57427 | 363 ft | 3 kts | 9° |
| 2026-05-08 11:40 | 49.00078 | 2.57421 | 360 ft | 3 kts | 11° |
| 2026-05-08 11:40 | 49.00059 | 2.57416 | 362 ft | 3 kts | 12° |
| 2026-05-08 11:41 | 49.00044 | 2.57407 | 364 ft | 3 kts | 63° |
| 2026-05-08 11:41 | 49.00041 | 2.57380 | 363 ft | 3 kts | 95° |
| 2026-05-08 11:41 | 49.00042 | 2.57355 | 360 ft | 0 kts | 85° |
| 2026-05-08 11:45 | 49.00043 | 2.57380 | 363 ft | 8 kts | 85° |
| 2026-05-08 11:45 | 49.00049 | 2.57491 | 366 ft | 14 kts | 85° |
| 2026-05-08 11:45 | 49.00056 | 2.57658 | 366 ft | 15 kts | 91° |
| 2026-05-08 11:46 | 49.00007 | 2.57728 | 366 ft | 9 kts | 194° |
| 2026-05-08 11:46 | 48.99981 | 2.57675 | 367 ft | 7 kts | 244° |
| 2026-05-08 11:46 | 48.99972 | 2.57591 | 363 ft | 9 kts | 265° |
| 2026-05-08 11:46 | 48.99966 | 2.57473 | 361 ft | 14 kts | 265° |
| 2026-05-08 11:47 | 48.99957 | 2.57296 | 364 ft | 17 kts | 265° |
| 2026-05-08 11:47 | 48.99946 | 2.57114 | 366 ft | 17 kts | 262° |
| 2026-05-08 11:47 | 48.99878 | 2.56989 | 369 ft | 15 kts | 224° |
| 2026-05-08 11:47 | 48.99843 | 2.56843 | 363 ft | 15 kts | 262° |
| 2026-05-08 11:48 | 48.99834 | 2.56684 | 366 ft | 16 kts | 265° |
| 2026-05-08 11:48 | 48.99825 | 2.56514 | 363 ft | 17 kts | 266° |
| 2026-05-08 11:48 | 48.99820 | 2.56396 | 360 ft | 17 kts | 265° |
| 2026-05-08 11:48 | 48.99809 | 2.56213 | 363 ft | 18 kts | 264° |
| 2026-05-08 11:49 | 48.99798 | 2.56020 | 366 ft | 19 kts | 268° |
| 2026-05-08 11:49 | 48.99749 | 2.55817 | 366 ft | 8 kts | 197° |
| 2026-05-08 11:49 | 48.99690 | 2.55814 | 366 ft | 9 kts | 178° |
| 2026-05-08 11:49 | 48.99648 | 2.55819 | 364 ft | 9 kts | 171° |
| 2026-05-08 11:50 | 48.99611 | 2.55881 | 365 ft | 7 kts | 109° |
| 2026-05-08 11:50 | 48.99609 | 2.55955 | 360 ft | 8 kts | 87° |
| 2026-05-08 11:50 | 48.99627 | 2.56329 | 369 ft | 67 kts | 85° |
| 2026-05-08 11:50 | 48.99681 | 2.57343 | 360 ft | 124 kts | 85° |
| 2026-05-08 11:51 | 48.99766 | 2.58895 | 417 ft | 164 kts | 83° |
| 2026-05-08 11:51 | 48.99863 | 2.60564 | 1134 ft | 154 kts | 84° |
| 2026-05-08 11:51 | 48.99973 | 2.62153 | 1776 ft | 153 kts | 84° |
| 2026-05-08 11:51 | 49.00097 | 2.63800 | 2298 ft | 158 kts | 83° |
| 2026-05-08 11:52 | 49.00249 | 2.65476 | 2798 ft | 161 kts | 81° |
| 2026-05-08 11:52 | 49.00431 | 2.67175 | 3303 ft | 163 kts | 81° |
| 2026-05-08 11:52 | 49.00602 | 2.68903 | 3715 ft | 170 kts | 84° |
| 2026-05-08 11:52 | 49.00680 | 2.70785 | 3973 ft | 185 kts | 88° |
| 2026-05-08 11:53 | 49.00694 | 2.72840 | 4254 ft | 203 kts | 90° |
| 2026-05-08 11:53 | 49.00681 | 2.75100 | 4481 ft | 224 kts | 89° |
| 2026-05-08 11:53 | 49.00962 | 2.77530 | 4795 ft | 241 kts | 67° |
| 2026-05-08 11:53 | 49.02014 | 2.79530 | 5292 ft | 251 kts | 34° |
| 2026-05-08 11:54 | 49.03706 | 2.80437 | 5625 ft | 269 kts | 6° |
| 2026-05-08 11:54 | 49.05580 | 2.80043 | 6178 ft | 277 kts | 340° |
| 2026-05-08 11:54 | 49.07323 | 2.78946 | 7070 ft | 272 kts | 336° |
| 2026-05-08 11:54 | 49.09054 | 2.77780 | 7873 ft | 272 kts | 335° |
| 2026-05-08 11:55 | 49.10812 | 2.76654 | 8593 ft | 277 kts | 338° |
| 2026-05-08 11:55 | 49.12644 | 2.75618 | 9288 ft | 283 kts | 339° |
| 2026-05-08 11:55 | 49.14517 | 2.74587 | 10014 ft | 288 kts | 338° |
| 2026-05-08 11:55 | 49.16421 | 2.73513 | 10538 ft | 300 kts | 338° |
| 2026-05-08 11:56 | 49.18462 | 2.72358 | 10676 ft | 325 kts | 337° |
| 2026-05-08 11:56 | 49.20622 | 2.71074 | 11035 ft | 341 kts | 337° |
| 2026-05-08 11:56 | 49.22875 | 2.69705 | 11400 ft | 355 kts | 337° |
| 2026-05-08 11:56 | 49.25214 | 2.68303 | 11862 ft | 366 kts | 337° |
| 2026-05-08 11:57 | 49.27613 | 2.66901 | 12554 ft | 370 kts | 338° |
| 2026-05-08 11:57 | 49.30020 | 2.65483 | 13268 ft | 372 kts | 338° |
| 2026-05-08 11:57 | 49.32461 | 2.64033 | 13978 ft | 375 kts | 337° |
| 2026-05-08 11:57 | 49.34896 | 2.62576 | 14476 ft | 383 kts | 337° |
| 2026-05-08 11:58 | 49.37409 | 2.61111 | 14983 ft | 389 kts | 338° |
| 2026-05-08 11:58 | 49.39959 | 2.59667 | 15584 ft | 392 kts | 338° |
| 2026-05-08 11:58 | 49.42536 | 2.58238 | 16176 ft | 395 kts | 339° |
| 2026-05-08 11:59 | 49.47707 | 2.55293 | 17606 ft | 396 kts | 336° |
| 2026-05-08 11:59 | 49.50280 | 2.53708 | 18199 ft | 401 kts | 336° |
| 2026-05-08 11:59 | 49.52871 | 2.52063 | 18717 ft | 406 kts | 336° |
| 2026-05-08 11:59 | 49.55508 | 2.50472 | 19294 ft | 408 kts | 337° |
| 2026-05-08 12:00 | 49.58178 | 2.48919 | 19877 ft | 411 kts | 337° |
| 2026-05-08 12:00 | 49.60870 | 2.47346 | 20420 ft | 415 kts | 337° |
| 2026-05-08 12:00 | 49.63575 | 2.45756 | 20994 ft | 418 kts | 337° |
| 2026-05-08 12:00 | 49.66277 | 2.44158 | 21535 ft | 422 kts | 337° |
| 2026-05-08 12:01 | 49.69027 | 2.42528 | 22074 ft | 425 kts | 337° |
| 2026-05-08 12:01 | 49.71800 | 2.40879 | 22611 ft | 428 kts | 337° |
| 2026-05-08 12:01 | 49.74592 | 2.39216 | 23194 ft | 431 kts | 337° |
| 2026-05-08 12:01 | 49.77398 | 2.37543 | 23724 ft | 434 kts | 337° |
| 2026-05-08 12:02 | 49.80270 | 2.35835 | 24182 ft | 438 kts | 338° |
| 2026-05-08 12:02 | 49.83092 | 2.34193 | 24652 ft | 440 kts | 338° |
| 2026-05-08 12:02 | 49.85967 | 2.32540 | 25124 ft | 443 kts | 338° |
| 2026-05-08 12:02 | 49.88867 | 2.30877 | 25591 ft | 445 kts | 338° |
| 2026-05-08 12:03 | 49.91781 | 2.29203 | 26041 ft | 448 kts | 338° |
| 2026-05-08 12:03 | 49.94709 | 2.27515 | 26494 ft | 450 kts | 338° |
| 2026-05-08 12:03 | 49.97651 | 2.25812 | 27027 ft | 451 kts | 338° |
| 2026-05-08 12:03 | 50.00590 | 2.24107 | 27546 ft | 452 kts | 338° |
| 2026-05-08 12:04 | 50.03545 | 2.22388 | 27978 ft | 454 kts | 338° |
| 2026-05-08 12:04 | 50.06511 | 2.20660 | 28420 ft | 457 kts | 338° |
| 2026-05-08 12:04 | 50.09499 | 2.18917 | 28851 ft | 459 kts | 338° |
| 2026-05-08 12:04 | 50.12499 | 2.17164 | 29276 ft | 462 kts | 338° |
| 2026-05-08 12:05 | 50.15509 | 2.15403 | 29688 ft | 464 kts | 338° |
| 2026-05-08 12:05 | 50.18541 | 2.13627 | 30070 ft | 467 kts | 338° |
| 2026-05-08 12:05 | 50.21595 | 2.11835 | 30256 ft | 472 kts | 338° |
| 2026-05-08 12:05 | 50.24685 | 2.10020 | 30589 ft | 474 kts | 338° |
| 2026-05-08 12:06 | 50.27774 | 2.08204 | 30961 ft | 474 kts | 338° |
| 2026-05-08 12:06 | 50.30860 | 2.06387 | 31302 ft | 475 kts | 338° |
| 2026-05-08 12:06 | 50.33945 | 2.04519 | 31617 ft | 475 kts | 335° |
| 2026-05-08 12:06 | 50.36892 | 2.02176 | 31903 ft | 475 kts | 327° |
| 2026-05-08 12:07 | 50.39568 | 1.99253 | 32188 ft | 475 kts | 321° |
| 2026-05-08 12:07 | 50.42140 | 1.95990 | 32566 ft | 474 kts | 319° |
| 2026-05-08 12:07 | 50.44648 | 1.92651 | 32969 ft | 472 kts | 318° |
| 2026-05-08 12:07 | 50.47120 | 1.89276 | 33418 ft | 469 kts | 318° |
| 2026-05-08 12:08 | 50.49560 | 1.85907 | 33856 ft | 467 kts | 318° |
| 2026-05-08 12:08 | 50.51985 | 1.82553 | 34426 ft | 458 kts | 318° |
| 2026-05-08 12:08 | 50.54362 | 1.79270 | 34880 ft | 454 kts | 318° |
| 2026-05-08 12:08 | 50.56755 | 1.75970 | 34960 ft | 458 kts | 318° |
| 2026-05-08 12:09 | 50.59159 | 1.72657 | 35102 ft | 461 kts | 318° |
| 2026-05-08 12:09 | 50.61574 | 1.69331 | 35289 ft | 461 kts | 318° |
| 2026-05-08 12:09 | 50.63990 | 1.66002 | 35511 ft | 462 kts | 318° |
| 2026-05-08 12:09 | 50.66408 | 1.62668 | 35658 ft | 464 kts | 318° |
| 2026-05-08 12:10 | 50.68834 | 1.59318 | 35850 ft | 464 kts | 317° |
| 2026-05-08 12:10 | 50.71267 | 1.55950 | 36035 ft | 465 kts | 317° |
| 2026-05-08 12:10 | 50.73667 | 1.52621 | 36217 ft | 465 kts | 317° |
| 2026-05-08 12:10 | 50.76105 | 1.49235 | 36379 ft | 466 kts | 317° |
| 2026-05-08 12:11 | 50.78538 | 1.45853 | 36555 ft | 467 kts | 317° |
| 2026-05-08 12:11 | 50.81037 | 1.42569 | 36710 ft | 468 kts | 320° |
| 2026-05-08 12:11 | 50.83610 | 1.39413 | 36904 ft | 468 kts | 321° |
| 2026-05-08 12:11 | 50.86203 | 1.36320 | 37203 ft | 465 kts | 321° |
| 2026-05-08 12:12 | 50.88791 | 1.33236 | 37323 ft | 467 kts | 321° |
| 2026-05-08 12:12 | 50.91384 | 1.30120 | 37416 ft | 468 kts | 321° |
| 2026-05-08 12:12 | 50.93974 | 1.26973 | 37552 ft | 469 kts | 320° |
| 2026-05-08 12:12 | 50.96558 | 1.23805 | 37690 ft | 469 kts | 320° |
| 2026-05-08 12:13 | 50.99142 | 1.20617 | 37822 ft | 470 kts | 320° |
| 2026-05-08 12:13 | 51.01716 | 1.17429 | 37936 ft | 471 kts | 320° |
| 2026-05-08 12:13 | 51.04299 | 1.14223 | 38063 ft | 471 kts | 320° |
| 2026-05-08 12:13 | 51.06894 | 1.10997 | 38107 ft | 474 kts | 320° |
| 2026-05-08 12:14 | 51.12108 | 1.04502 | 38104 ft | 476 kts | 320° |
| 2026-05-08 12:14 | 51.17292 | 0.98032 | 38107 ft | 476 kts | 320° |
| 2026-05-08 12:15 | 51.22507 | 0.91505 | 38079 ft | 475 kts | 320° |
| 2026-05-08 12:15 | 51.27694 | 0.84995 | 38071 ft | 474 kts | 320° |
| 2026-05-08 12:16 | 51.32884 | 0.78460 | 38094 ft | 474 kts | 320° |
| 2026-05-08 12:16 | 51.38064 | 0.71916 | 38098 ft | 475 kts | 320° |
| 2026-05-08 12:17 | 51.43250 | 0.65346 | 38101 ft | 475 kts | 320° |
| 2026-05-08 12:17 | 51.48442 | 0.58751 | 38101 ft | 475 kts | 320° |
| 2026-05-08 12:18 | 51.53624 | 0.52148 | 38114 ft | 476 kts | 320° |
| 2026-05-08 12:18 | 51.58800 | 0.45533 | 38102 ft | 475 kts | 320° |
| 2026-05-08 12:19 | 51.63965 | 0.38912 | 38095 ft | 475 kts | 320° |
| 2026-05-08 12:19 | 51.69119 | 0.32285 | 38096 ft | 475 kts | 319° |
| 2026-05-08 12:20 | 51.74279 | 0.25630 | 38097 ft | 475 kts | 319° |
| 2026-05-08 12:20 | 51.79406 | 0.18999 | 38102 ft | 475 kts | 319° |
| 2026-05-08 12:21 | 51.84556 | 0.12317 | 38102 ft | 475 kts | 319° |
| 2026-05-08 12:21 | 51.89709 | 0.05610 | 38100 ft | 475 kts | 319° |
| 2026-05-08 12:22 | 51.94853 | -0.01104 | 38097 ft | 475 kts | 319° |
| 2026-05-08 12:22 | 51.99980 | -0.07815 | 38090 ft | 472 kts | 319° |
| 2026-05-08 12:23 | 52.05082 | -0.14515 | 38091 ft | 471 kts | 319° |
| 2026-05-08 12:23 | 52.10183 | -0.21235 | 38079 ft | 472 kts | 319° |
| 2026-05-08 12:24 | 52.15277 | -0.27966 | 38075 ft | 471 kts | 319° |
| 2026-05-08 12:24 | 52.20365 | -0.34708 | 38079 ft | 471 kts | 319° |
| 2026-05-08 12:25 | 52.25452 | -0.41471 | 38074 ft | 471 kts | 319° |
| 2026-05-08 12:25 | 52.30535 | -0.48248 | 38081 ft | 471 kts | 319° |
| 2026-05-08 12:26 | 52.35614 | -0.55041 | 38079 ft | 471 kts | 319° |
| 2026-05-08 12:26 | 52.40656 | -0.61805 | 38077 ft | 472 kts | 319° |
| 2026-05-08 12:27 | 52.45755 | -0.68667 | 38076 ft | 471 kts | 318° |
| 2026-05-08 12:27 | 52.50786 | -0.75458 | 38077 ft | 471 kts | 318° |
| 2026-05-08 12:28 | 52.55849 | -0.82313 | 38078 ft | 471 kts | 318° |
| 2026-05-08 12:28 | 52.60912 | -0.89190 | 38078 ft | 471 kts | 318° |
| 2026-05-08 12:29 | 52.65960 | -0.96067 | 38062 ft | 471 kts | 318° |
| 2026-05-08 12:29 | 52.71018 | -1.02979 | 38054 ft | 471 kts | 318° |
| 2026-05-08 12:30 | 52.76030 | -1.09914 | 38117 ft | 469 kts | 316° |
| 2026-05-08 12:30 | 52.80769 | -1.17301 | 38102 ft | 469 kts | 313° |
| 2026-05-08 12:31 | 52.85425 | -1.24846 | 38102 ft | 469 kts | 313° |
| 2026-05-08 12:31 | 52.90116 | -1.32356 | 38102 ft | 469 kts | 314° |
| 2026-05-08 12:32 | 52.94833 | -1.39835 | 38101 ft | 469 kts | 314° |
| 2026-05-08 12:32 | 52.99549 | -1.47309 | 38099 ft | 469 kts | 314° |
| 2026-05-08 12:33 | 53.03466 | -1.53534 | 38102 ft | 469 kts | 313° |
| 2026-05-08 12:33 | 53.08166 | -1.61032 | 38098 ft | 468 kts | 313° |
| 2026-05-08 12:34 | 53.12869 | -1.68552 | 38099 ft | 468 kts | 313° |
| 2026-05-08 12:34 | 53.17561 | -1.76094 | 38100 ft | 468 kts | 313° |
| 2026-05-08 12:35 | 53.22270 | -1.83590 | 38100 ft | 469 kts | 316° |
| 2026-05-08 12:35 | 53.27634 | -1.89768 | 38102 ft | 473 kts | 326° |
| 2026-05-08 12:36 | 53.33339 | -1.95295 | 38099 ft | 474 kts | 327° |
| 2026-05-08 12:36 | 53.39088 | -2.00711 | 38100 ft | 474 kts | 327° |
| 2026-05-08 12:37 | 53.44843 | -2.06155 | 38100 ft | 474 kts | 327° |
| 2026-05-08 12:37 | 53.50578 | -2.11628 | 38097 ft | 474 kts | 327° |
| 2026-05-08 12:38 | 53.56144 | -2.17534 | 38098 ft | 470 kts | 317° |
| 2026-05-08 12:38 | 53.60530 | -2.25405 | 38099 ft | 462 kts | 301° |
| 2026-05-08 12:39 | 53.63401 | -2.35002 | 38098 ft | 458 kts | 290° |
| 2026-05-08 12:39 | 53.65722 | -2.45007 | 38098 ft | 458 kts | 289° |
| 2026-05-08 12:40 | 53.67960 | -2.55065 | 38094 ft | 458 kts | 289° |
| 2026-05-08 12:40 | 53.70208 | -2.65111 | 38097 ft | 457 kts | 288° |
| 2026-05-08 12:41 | 53.72467 | -2.75150 | 38097 ft | 457 kts | 288° |
| 2026-05-08 12:41 | 53.74727 | -2.85208 | 38075 ft | 457 kts | 288° |
| 2026-05-08 12:42 | 53.76962 | -2.95201 | 38102 ft | 457 kts | 288° |
| 2026-05-08 12:42 | 53.79203 | -3.05270 | 38102 ft | 457 kts | 288° |
| 2026-05-08 12:43 | 53.81432 | -3.15341 | 38111 ft | 457 kts | 288° |
| 2026-05-08 12:43 | 53.83654 | -3.25422 | 38102 ft | 456 kts | 288° |
| 2026-05-08 12:44 | 53.85858 | -3.35481 | 38104 ft | 455 kts | 288° |
| 2026-05-08 12:44 | 53.88231 | -3.45448 | 38104 ft | 458 kts | 294° |
| 2026-05-08 12:45 | 53.91904 | -3.54329 | 38105 ft | 464 kts | 308° |
| 2026-05-08 12:45 | 53.96315 | -3.62357 | 38103 ft | 466 kts | 310° |
| 2026-05-08 12:46 | 54.00853 | -3.70272 | 38095 ft | 468 kts | 310° |
| 2026-05-08 12:46 | 54.05380 | -3.78199 | 38117 ft | 467 kts | 310° |
| 2026-05-08 12:47 | 54.09854 | -3.86115 | 38111 ft | 466 kts | 309° |
| 2026-05-08 12:47 | 54.14340 | -3.94106 | 38094 ft | 466 kts | 309° |
| 2026-05-08 12:48 | 54.18815 | -4.02110 | 38107 ft | 466 kts | 309° |
| 2026-05-08 12:48 | 54.23291 | -4.10139 | 38093 ft | 467 kts | 309° |
| 2026-05-08 12:49 | 54.27772 | -4.18202 | 38087 ft | 467 kts | 309° |
| 2026-05-08 12:49 | 54.32240 | -4.26269 | 38092 ft | 467 kts | 309° |
| 2026-05-08 12:50 | 54.36708 | -4.34362 | 38088 ft | 467 kts | 309° |
| 2026-05-08 12:50 | 54.41168 | -4.42470 | 38085 ft | 467 kts | 309° |
| 2026-05-08 12:51 | 54.47856 | -4.54682 | 38086 ft | 468 kts | 309° |
| 2026-05-08 12:52 | 54.52284 | -4.62800 | 38088 ft | 468 kts | 309° |
| 2026-05-08 12:52 | 54.58959 | -4.75088 | 38095 ft | 468 kts | 309° |
| 2026-05-08 12:53 | 54.63406 | -4.83312 | 38094 ft | 468 kts | 309° |
| 2026-05-08 12:53 | 54.67845 | -4.91548 | 38103 ft | 469 kts | 308° |
| 2026-05-08 12:54 | 54.72291 | -4.99827 | 38106 ft | 470 kts | 308° |
| 2026-05-08 12:54 | 54.76732 | -5.08125 | 38104 ft | 470 kts | 308° |
| 2026-05-08 12:55 | 54.81171 | -5.16446 | 38108 ft | 470 kts | 308° |
| 2026-05-08 12:55 | 54.85606 | -5.24789 | 38117 ft | 470 kts | 308° |
| 2026-05-08 12:56 | 54.90034 | -5.33148 | 38138 ft | 470 kts | 308° |
| 2026-05-08 12:56 | 54.94430 | -5.41477 | 38118 ft | 470 kts | 308° |
| 2026-05-08 12:57 | 54.98853 | -5.49887 | 38127 ft | 470 kts | 308° |
| 2026-05-08 12:57 | 55.03276 | -5.58326 | 38123 ft | 471 kts | 308° |
| 2026-05-08 12:58 | 55.07692 | -5.66782 | 38124 ft | 471 kts | 308° |
| 2026-05-08 12:58 | 55.12102 | -5.75254 | 38120 ft | 471 kts | 307° |
| 2026-05-08 12:59 | 55.16509 | -5.83713 | 38122 ft | 465 kts | 306° |
| 2026-05-08 12:59 | 55.20814 | -5.92023 | 38117 ft | 460 kts | 307° |
| 2026-05-08 13:00 | 55.25124 | -6.00422 | 38119 ft | 466 kts | 307° |
| 2026-05-08 13:00 | 55.29485 | -6.08956 | 38122 ft | 473 kts | 307° |
| 2026-05-08 13:01 | 55.33859 | -6.17517 | 38121 ft | 474 kts | 307° |
| 2026-05-08 13:01 | 55.38260 | -6.26146 | 38130 ft | 474 kts | 307° |
| 2026-05-08 13:02 | 55.42655 | -6.34800 | 38129 ft | 475 kts | 307° |
| 2026-05-08 13:02 | 55.47052 | -6.43490 | 38129 ft | 475 kts | 306° |
| 2026-05-08 13:03 | 55.51445 | -6.52206 | 38129 ft | 475 kts | 306° |
| 2026-05-08 13:03 | 55.55822 | -6.60923 | 38129 ft | 475 kts | 306° |
| 2026-05-08 13:04 | 55.60153 | -6.69733 | 38132 ft | 473 kts | 304° |
| 2026-05-08 13:04 | 55.64270 | -6.78819 | 38137 ft | 474 kts | 303° |
| 2026-05-08 13:05 | 55.68361 | -6.87974 | 38138 ft | 474 kts | 303° |
| 2026-05-08 13:05 | 55.72456 | -6.97065 | 38133 ft | 475 kts | 303° |
| 2026-05-08 13:06 | 55.76584 | -7.06200 | 38132 ft | 475 kts | 303° |
| 2026-05-08 13:06 | 55.80711 | -7.15353 | 38132 ft | 475 kts | 303° |
| 2026-05-08 13:07 | 55.84830 | -7.24528 | 38135 ft | 474 kts | 303° |
| 2026-05-08 13:07 | 55.88945 | -7.33730 | 38135 ft | 474 kts | 303° |
| 2026-05-08 13:08 | 55.93050 | -7.42948 | 38140 ft | 475 kts | 303° |
| 2026-05-08 13:08 | 55.97156 | -7.52203 | 38142 ft | 475 kts | 303° |
| 2026-05-08 13:09 | 56.01236 | -7.61495 | 38142 ft | 475 kts | 303° |
| 2026-05-08 13:09 | 56.05277 | -7.70835 | 38141 ft | 475 kts | 303° |
| 2026-05-08 13:10 | 56.09314 | -7.80196 | 38137 ft | 475 kts | 303° |
| 2026-05-08 13:10 | 56.13325 | -7.89514 | 38158 ft | 475 kts | 303° |
| 2026-05-08 13:11 | 56.17362 | -7.98920 | 38139 ft | 475 kts | 303° |
| 2026-05-08 13:11 | 56.21384 | -8.08326 | 38146 ft | 475 kts | 303° |
| 2026-05-08 13:12 | 56.25397 | -8.17750 | 38146 ft | 475 kts | 302° |
| 2026-05-08 13:12 | 56.29407 | -8.27204 | 38146 ft | 475 kts | 302° |
| 2026-05-08 13:13 | 56.33411 | -8.36679 | 38148 ft | 475 kts | 303° |
| 2026-05-08 13:13 | 56.37410 | -8.46176 | 38148 ft | 476 kts | 302° |
| 2026-05-08 13:14 | 56.41381 | -8.55645 | 38156 ft | 476 kts | 302° |
| 2026-05-08 13:14 | 56.45368 | -8.65191 | 38151 ft | 475 kts | 302° |
| 2026-05-08 13:15 | 56.49345 | -8.74752 | 38154 ft | 476 kts | 302° |
| 2026-05-08 13:15 | 56.53315 | -8.84339 | 38181 ft | 476 kts | 302° |
| 2026-05-08 13:16 | 56.57298 | -8.93994 | 38154 ft | 478 kts | 302° |
| 2026-05-08 13:16 | 56.61268 | -9.03654 | 38154 ft | 478 kts | 302° |
| 2026-05-08 13:17 | 56.65211 | -9.13283 | 38157 ft | 478 kts | 302° |
| 2026-05-08 13:17 | 56.69195 | -9.23053 | 38156 ft | 478 kts | 302° |
| 2026-05-08 13:18 | 56.73144 | -9.32774 | 38159 ft | 478 kts | 302° |
| 2026-05-08 13:18 | 56.77060 | -9.42458 | 38173 ft | 478 kts | 302° |
| 2026-05-08 13:19 | 56.81007 | -9.52254 | 38172 ft | 480 kts | 302° |
| 2026-05-08 13:19 | 56.84958 | -9.62099 | 38151 ft | 480 kts | 302° |
| 2026-05-08 13:20 | 56.88900 | -9.71959 | 38158 ft | 480 kts | 302° |
| 2026-05-08 13:20 | 56.92170 | -9.80172 | 38179 ft | 480 kts | 302° |
| 2026-05-08 13:21 | 56.96095 | -9.90067 | 38158 ft | 480 kts | 302° |
| 2026-05-08 13:21 | 56.99869 | -10.00147 | 38177 ft | 477 kts | 295° |
| 2026-05-08 13:22 | 57.02813 | -10.11030 | 38175 ft | 476 kts | 292° |
| 2026-05-08 13:22 | 57.05593 | -10.22072 | 38178 ft | 476 kts | 291° |
| 2026-05-08 13:23 | 57.08325 | -10.33110 | 38180 ft | 476 kts | 291° |
| 2026-05-08 13:23 | 57.11066 | -10.44206 | 38179 ft | 476 kts | 291° |
| 2026-05-08 13:24 | 57.13806 | -10.55312 | 38182 ft | 476 kts | 291° |
| 2026-05-08 13:24 | 57.16538 | -10.66432 | 38181 ft | 476 kts | 291° |
| 2026-05-08 13:25 | 57.19258 | -10.77563 | 38212 ft | 476 kts | 291° |
| 2026-05-08 13:25 | 57.21971 | -10.88721 | 38189 ft | 476 kts | 291° |
| 2026-05-08 13:26 | 57.24671 | -10.99887 | 38194 ft | 476 kts | 291° |
| 2026-05-08 13:26 | 57.27363 | -11.11073 | 38195 ft | 476 kts | 291° |
| 2026-05-08 13:27 | 57.30044 | -11.22272 | 38197 ft | 476 kts | 291° |
| 2026-05-08 13:27 | 57.32701 | -11.33426 | 38200 ft | 476 kts | 291° |
| 2026-05-08 13:28 | 57.35361 | -11.44656 | 38205 ft | 476 kts | 291° |
| 2026-05-08 13:28 | 57.38010 | -11.55892 | 38207 ft | 476 kts | 291° |
| 2026-05-08 13:29 | 57.40652 | -11.67161 | 38209 ft | 477 kts | 291° |
| 2026-05-08 13:29 | 57.43288 | -11.78464 | 38208 ft | 477 kts | 291° |
| 2026-05-08 13:30 | 57.45912 | -11.89772 | 38215 ft | 477 kts | 291° |
| 2026-05-08 13:30 | 57.48527 | -12.01105 | 38211 ft | 477 kts | 291° |
| 2026-05-08 13:31 | 57.51136 | -12.12469 | 38215 ft | 477 kts | 291° |
| 2026-05-08 13:31 | 57.53731 | -12.23838 | 38216 ft | 477 kts | 291° |
| 2026-05-08 13:32 | 57.56303 | -12.35162 | 38216 ft | 477 kts | 291° |
| 2026-05-08 13:32 | 57.58877 | -12.46553 | 38238 ft | 477 kts | 291° |
| 2026-05-08 13:33 | 57.61439 | -12.57958 | 38217 ft | 477 kts | 291° |
| 2026-05-08 13:33 | 57.63989 | -12.69369 | 38223 ft | 476 kts | 291° |
| 2026-05-08 13:34 | 57.66532 | -12.80814 | 38225 ft | 477 kts | 291° |
| 2026-05-08 13:34 | 57.69062 | -12.92261 | 38229 ft | 477 kts | 291° |
| 2026-05-08 13:35 | 57.71592 | -13.03770 | 38228 ft | 479 kts | 291° |
| 2026-05-08 13:35 | 57.74110 | -13.15286 | 38227 ft | 477 kts | 290° |
| 2026-05-08 13:36 | 57.76611 | -13.26789 | 38234 ft | 477 kts | 290° |
| 2026-05-08 13:36 | 57.79096 | -13.38289 | 38233 ft | 476 kts | 291° |
| 2026-05-08 13:37 | 57.81557 | -13.49735 | 38243 ft | 476 kts | 291° |
| 2026-05-08 13:37 | 57.84028 | -13.61293 | 38237 ft | 477 kts | 291° |
| 2026-05-08 13:38 | 57.86495 | -13.72894 | 38241 ft | 479 kts | 291° |
| 2026-05-08 13:38 | 57.88956 | -13.84538 | 38246 ft | 479 kts | 291° |
| 2026-05-08 13:39 | 57.91398 | -13.96156 | 38247 ft | 478 kts | 291° |
| 2026-05-08 13:39 | 57.93812 | -14.07706 | 38254 ft | 476 kts | 290° |
| 2026-05-08 13:40 | 57.96218 | -14.19287 | 38240 ft | 476 kts | 291° |
| 2026-05-08 13:40 | 57.98626 | -14.30935 | 38254 ft | 477 kts | 291° |
| 2026-05-08 13:41 | 58.01029 | -14.42633 | 38259 ft | 480 kts | 291° |
| 2026-05-08 13:41 | 58.03426 | -14.54373 | 38260 ft | 479 kts | 291° |
| 2026-05-08 13:42 | 58.05805 | -14.66091 | 38265 ft | 478 kts | 291° |
| 2026-05-08 13:42 | 58.08175 | -14.77834 | 38267 ft | 478 kts | 290° |
| 2026-05-08 13:43 | 58.10527 | -14.89554 | 38262 ft | 476 kts | 290° |
| 2026-05-08 13:43 | 58.12871 | -15.01308 | 38267 ft | 478 kts | 291° |
| 2026-05-08 13:44 | 58.15198 | -15.13044 | 38269 ft | 481 kts | 291° |
| 2026-05-08 13:44 | 58.17540 | -15.24930 | 38278 ft | 481 kts | 291° |
| 2026-05-08 13:45 | 58.19866 | -15.36794 | 38280 ft | 481 kts | 291° |
| 2026-05-08 13:45 | 58.22179 | -15.48675 | 38277 ft | 478 kts | 291° |
| 2026-05-08 13:46 | 58.24478 | -15.60544 | 38276 ft | 480 kts | 290° |
| 2026-05-08 13:46 | 58.26769 | -15.72450 | 38278 ft | 481 kts | 291° |
| 2026-05-08 13:47 | 58.29058 | -15.84420 | 38280 ft | 483 kts | 291° |
| 2026-05-08 13:47 | 58.31338 | -15.96425 | 38276 ft | 482 kts | 290° |
| 2026-05-08 13:48 | 58.33592 | -16.08365 | 38284 ft | 482 kts | 291° |
| 2026-05-08 13:48 | 58.35851 | -16.20399 | 38283 ft | 483 kts | 291° |
| 2026-05-08 13:49 | 58.38106 | -16.32485 | 38284 ft | 483 kts | 290° |
| 2026-05-08 13:49 | 58.40347 | -16.44580 | 38282 ft | 484 kts | 291° |
| 2026-05-08 13:50 | 58.42579 | -16.56703 | 38287 ft | 484 kts | 291° |
| 2026-05-08 13:50 | 58.44783 | -16.68749 | 38291 ft | 484 kts | 291° |
| 2026-05-08 13:51 | 58.46991 | -16.80895 | 38291 ft | 483 kts | 290° |
| 2026-05-08 13:51 | 58.49188 | -16.93059 | 38292 ft | 484 kts | 290° |
| 2026-05-08 13:52 | 58.51376 | -17.05249 | 38300 ft | 484 kts | 290° |
| 2026-05-08 13:52 | 58.53538 | -17.17373 | 38296 ft | 484 kts | 291° |
| 2026-05-08 13:53 | 58.55712 | -17.29649 | 38301 ft | 484 kts | 290° |
| 2026-05-08 13:53 | 58.57845 | -17.41774 | 38298 ft | 484 kts | 290° |
| 2026-05-08 13:54 | 58.59984 | -17.54011 | 38302 ft | 484 kts | 290° |
| 2026-05-08 13:54 | 58.62112 | -17.66266 | 38306 ft | 484 kts | 290° |
| 2026-05-08 13:55 | 58.64225 | -17.78521 | 38306 ft | 484 kts | 290° |
| 2026-05-08 13:56 | 58.67370 | -17.96917 | 38319 ft | 482 kts | 291° |
| 2026-05-08 13:56 | 58.69449 | -18.09175 | 38305 ft | 482 kts | 291° |
| 2026-05-08 13:57 | 58.71514 | -18.21435 | 38313 ft | 482 kts | 290° |
| 2026-05-08 13:57 | 58.73570 | -18.33722 | 38325 ft | 482 kts | 290° |
| 2026-05-08 13:58 | 58.75613 | -18.46023 | 38336 ft | 482 kts | 290° |
| 2026-05-08 13:58 | 58.77631 | -18.58249 | 38322 ft | 482 kts | 290° |
| 2026-05-08 13:59 | 58.79648 | -18.70562 | 38329 ft | 481 kts | 290° |
| 2026-05-08 13:59 | 58.81650 | -18.82869 | 38333 ft | 480 kts | 291° |
| 2026-05-08 14:00 | 58.83639 | -18.95183 | 38335 ft | 479 kts | 291° |
| 2026-05-08 14:00 | 58.85613 | -19.07485 | 38344 ft | 479 kts | 290° |
| 2026-05-08 14:01 | 58.87561 | -19.19709 | 38344 ft | 479 kts | 290° |
| 2026-05-08 14:01 | 58.89512 | -19.32037 | 38344 ft | 479 kts | 290° |
| 2026-05-08 14:02 | 58.91449 | -19.44380 | 38343 ft | 478 kts | 291° |
| 2026-05-08 14:02 | 58.93371 | -19.56711 | 38346 ft | 477 kts | 290° |
| 2026-05-08 14:03 | 58.95277 | -19.69020 | 38346 ft | 477 kts | 290° |
| 2026-05-08 14:03 | 58.97169 | -19.81330 | 38346 ft | 476 kts | 290° |
| 2026-05-08 14:04 | 58.99046 | -19.93641 | 38350 ft | 476 kts | 290° |
| 2026-05-08 14:04 | 59.00226 | -20.06345 | 38356 ft | 482 kts | 280° |
| 2026-05-08 14:05 | 59.00783 | -20.19250 | 38357 ft | 484 kts | 278° |
| 2026-05-08 14:05 | 59.01239 | -20.32278 | 38365 ft | 484 kts | 278° |
| 2026-05-08 14:06 | 59.01683 | -20.45313 | 38365 ft | 484 kts | 278° |
| 2026-05-08 14:06 | 59.02127 | -20.58337 | 38373 ft | 484 kts | 278° |
| 2026-05-08 14:07 | 59.02565 | -20.71381 | 38370 ft | 484 kts | 278° |
| 2026-05-08 14:07 | 59.02991 | -20.84430 | 38352 ft | 484 kts | 278° |
| 2026-05-08 14:08 | 59.03403 | -20.97460 | 38376 ft | 484 kts | 278° |
| 2026-05-08 14:08 | 59.03801 | -21.10512 | 38383 ft | 484 kts | 278° |
| 2026-05-08 14:09 | 59.04122 | -21.21349 | 38387 ft | 483 kts | 278° |
| 2026-05-08 14:09 | 59.04555 | -21.36495 | 38386 ft | 483 kts | 278° |
| 2026-05-08 14:10 | 59.04854 | -21.47319 | 38387 ft | 483 kts | 278° |
| 2026-05-08 14:10 | 59.05201 | -21.60339 | 38381 ft | 483 kts | 278° |
| 2026-05-08 14:11 | 59.05536 | -21.73371 | 38400 ft | 483 kts | 278° |
| 2026-05-08 14:11 | 59.05858 | -21.86410 | 38396 ft | 483 kts | 278° |
| 2026-05-08 14:12 | 59.06166 | -21.99453 | 38398 ft | 483 kts | 277° |
| 2026-05-08 14:12 | 59.06462 | -22.12497 | 38398 ft | 483 kts | 277° |
| 2026-05-08 14:13 | 59.06744 | -22.25537 | 38388 ft | 483 kts | 277° |
| 2026-05-08 14:13 | 59.07013 | -22.38581 | 38412 ft | 483 kts | 277° |
| 2026-05-08 14:14 | 59.07269 | -22.51616 | 38417 ft | 483 kts | 277° |
| 2026-05-08 14:14 | 59.07512 | -22.64656 | 38416 ft | 482 kts | 277° |
| 2026-05-08 14:15 | 59.07739 | -22.77581 | 38414 ft | 481 kts | 277° |
| 2026-05-08 14:15 | 59.07956 | -22.90587 | 38425 ft | 481 kts | 277° |
| 2026-05-08 14:16 | 59.08159 | -23.03586 | 38423 ft | 480 kts | 277° |
| 2026-05-08 14:16 | 59.08349 | -23.16582 | 38429 ft | 480 kts | 277° |
| 2026-05-08 14:17 | 59.08526 | -23.29569 | 38431 ft | 480 kts | 277° |
| 2026-05-08 14:17 | 59.08690 | -23.42551 | 38436 ft | 480 kts | 277° |
| 2026-05-08 14:18 | 59.08841 | -23.55539 | 38436 ft | 480 kts | 277° |
| 2026-05-08 14:18 | 59.08978 | -23.68519 | 38431 ft | 479 kts | 277° |
| 2026-05-08 14:19 | 59.09100 | -23.81367 | 38445 ft | 476 kts | 277° |
| 2026-05-08 14:19 | 59.09212 | -23.94234 | 38450 ft | 476 kts | 277° |
| 2026-05-08 14:20 | 59.09311 | -24.07104 | 38448 ft | 476 kts | 277° |
| 2026-05-08 14:20 | 59.09396 | -24.19938 | 38457 ft | 473 kts | 277° |
| 2026-05-08 14:21 | 59.09468 | -24.32728 | 38457 ft | 473 kts | 277° |
| 2026-05-08 14:21 | 59.09527 | -24.45494 | 38453 ft | 471 kts | 276° |
| 2026-05-08 14:22 | 59.09575 | -24.58232 | 38463 ft | 471 kts | 276° |
| 2026-05-08 14:22 | 59.09610 | -24.70984 | 38456 ft | 471 kts | 276° |
| 2026-05-08 14:23 | 59.09632 | -24.83730 | 38461 ft | 471 kts | 276° |
| 2026-05-08 14:23 | 59.09642 | -24.96477 | 38464 ft | 471 kts | 276° |
| 2026-05-08 14:24 | 59.09639 | -25.09230 | 38453 ft | 471 kts | 276° |
| 2026-05-08 14:24 | 59.09623 | -25.21950 | 38482 ft | 470 kts | 276° |
| 2026-05-08 14:25 | 59.09595 | -25.34658 | 38469 ft | 470 kts | 276° |
| 2026-05-08 14:25 | 59.09556 | -25.47371 | 38484 ft | 470 kts | 276° |
| 2026-05-08 14:26 | 59.09503 | -25.60085 | 38467 ft | 470 kts | 276° |
| 2026-05-08 14:26 | 59.09438 | -25.72798 | 38470 ft | 470 kts | 276° |
| 2026-05-08 14:27 | 59.09362 | -25.85399 | 38478 ft | 469 kts | 275° |
| 2026-05-08 14:27 | 59.09272 | -25.98081 | 38484 ft | 469 kts | 275° |
| 2026-05-08 14:28 | 59.09171 | -26.10776 | 38486 ft | 469 kts | 275° |
| 2026-05-08 14:28 | 59.09057 | -26.23453 | 38489 ft | 469 kts | 275° |
| 2026-05-08 14:29 | 59.08930 | -26.36144 | 38487 ft | 469 kts | 275° |
| 2026-05-08 14:29 | 59.08791 | -26.48823 | 38465 ft | 469 kts | 275° |
| 2026-05-08 14:30 | 59.08638 | -26.61513 | 38488 ft | 468 kts | 275° |
| 2026-05-08 14:30 | 59.08474 | -26.74171 | 38490 ft | 468 kts | 275° |
| 2026-05-08 14:31 | 59.08299 | -26.86768 | 38487 ft | 468 kts | 275° |
| 2026-05-08 14:31 | 59.08112 | -26.99425 | 38487 ft | 468 kts | 275° |
| 2026-05-08 14:32 | 59.07806 | -27.18414 | 38498 ft | 467 kts | 274° |
| 2026-05-08 14:32 | 59.07588 | -27.31013 | 38498 ft | 467 kts | 274° |
| 2026-05-08 14:33 | 59.07359 | -27.43551 | 38498 ft | 467 kts | 274° |
| 2026-05-08 14:33 | 59.07115 | -27.56237 | 38497 ft | 467 kts | 274° |
| 2026-05-08 14:34 | 59.06862 | -27.68764 | 38503 ft | 467 kts | 274° |
| 2026-05-08 14:34 | 59.06595 | -27.81384 | 38503 ft | 467 kts | 274° |
| 2026-05-08 14:35 | 59.06315 | -27.93985 | 38504 ft | 466 kts | 274° |
| 2026-05-08 14:35 | 59.06024 | -28.06557 | 38504 ft | 465 kts | 274° |
| 2026-05-08 14:36 | 59.05721 | -28.19126 | 38505 ft | 465 kts | 274° |
| 2026-05-08 14:36 | 59.05407 | -28.31695 | 38505 ft | 466 kts | 274° |
| 2026-05-08 14:37 | 59.05080 | -28.44249 | 38500 ft | 466 kts | 274° |
| 2026-05-08 14:37 | 59.04742 | -28.56738 | 38460 ft | 466 kts | 274° |
| 2026-05-08 14:38 | 59.04390 | -28.69276 | 38502 ft | 463 kts | 273° |
| 2026-05-08 14:38 | 59.04029 | -28.81733 | 38500 ft | 462 kts | 273° |
| 2026-05-08 14:39 | 59.03657 | -28.94197 | 38499 ft | 462 kts | 273° |
| 2026-05-08 14:39 | 59.03274 | -29.06647 | 38509 ft | 462 kts | 273° |
| 2026-05-08 14:40 | 59.02877 | -29.19106 | 38500 ft | 462 kts | 273° |
| 2026-05-08 14:40 | 59.02468 | -29.31562 | 38502 ft | 462 kts | 272° |
| 2026-05-08 14:41 | 59.02048 | -29.43974 | 38508 ft | 461 kts | 272° |
| 2026-05-08 14:41 | 59.01617 | -29.56381 | 38508 ft | 460 kts | 272° |
| 2026-05-08 14:42 | 59.01174 | -29.68791 | 38508 ft | 461 kts | 272° |
| 2026-05-08 14:42 | 59.00719 | -29.81210 | 38508 ft | 461 kts | 272° |
| 2026-05-08 14:43 | 59.00255 | -29.93546 | 38543 ft | 461 kts | 272° |
| 2026-05-08 14:43 | 59.00128 | -29.99728 | 38771 ft | 455 kts | 277° |
| 2026-05-08 14:43 | 59.00261 | -30.05822 | 39077 ft | 451 kts | 279° |
| 2026-05-08 14:44 | 59.00448 | -30.11877 | 39312 ft | 448 kts | 279° |
| 2026-05-08 14:44 | 59.00659 | -30.17899 | 39476 ft | 447 kts | 279° |
| 2026-05-08 14:44 | 59.01113 | -30.29958 | 39642 ft | 449 kts | 279° |
| 2026-05-08 14:45 | 59.01339 | -30.35995 | 39750 ft | 449 kts | 279° |
| 2026-05-08 14:45 | 59.01561 | -30.42056 | 39858 ft | 450 kts | 279° |
| 2026-05-08 14:45 | 59.01988 | -30.54171 | 40042 ft | 451 kts | 279° |
| 2026-05-08 14:46 | 59.02401 | -30.66340 | 40220 ft | 452 kts | 279° |
| 2026-05-08 14:46 | 59.02800 | -30.78448 | 40402 ft | 452 kts | 278° |
| 2026-05-08 14:47 | 59.03190 | -30.90640 | 40505 ft | 454 kts | 278° |
| 2026-05-08 14:47 | 59.03572 | -31.02898 | 40504 ft | 454 kts | 278° |
| 2026-05-08 14:48 | 59.03941 | -31.15168 | 40508 ft | 454 kts | 278° |
| 2026-05-08 14:48 | 59.04298 | -31.27416 | 40503 ft | 453 kts | 278° |
| 2026-05-08 14:49 | 59.04643 | -31.39637 | 40501 ft | 453 kts | 278° |
| 2026-05-08 14:49 | 59.04977 | -31.51862 | 40477 ft | 453 kts | 278° |
| 2026-05-08 14:50 | 59.05298 | -31.64065 | 40497 ft | 452 kts | 278° |
| 2026-05-08 14:50 | 59.05608 | -31.76249 | 40508 ft | 452 kts | 278° |
| 2026-05-08 14:51 | 59.05905 | -31.88367 | 40502 ft | 451 kts | 277° |
| 2026-05-08 14:51 | 59.06193 | -32.00586 | 40497 ft | 451 kts | 277° |
| 2026-05-08 14:52 | 59.06602 | -32.18876 | 40499 ft | 452 kts | 277° |
| 2026-05-08 14:53 | 59.06860 | -32.31073 | 40477 ft | 451 kts | 277° |
| 2026-05-08 14:53 | 59.07105 | -32.43247 | 40491 ft | 449 kts | 277° |
| 2026-05-08 14:54 | 59.07339 | -32.55377 | 40490 ft | 449 kts | 277° |
| 2026-05-08 14:54 | 59.07562 | -32.67444 | 40493 ft | 449 kts | 277° |
| 2026-05-08 14:55 | 59.07774 | -32.79593 | 40485 ft | 449 kts | 277° |
| 2026-05-08 14:55 | 59.07974 | -32.91757 | 40488 ft | 450 kts | 277° |
| 2026-05-08 14:56 | 59.08163 | -33.03906 | 40482 ft | 450 kts | 277° |
| 2026-05-08 14:56 | 59.08312 | -33.14015 | 40483 ft | 449 kts | 277° |
| 2026-05-08 14:57 | 59.08480 | -33.26171 | 40477 ft | 449 kts | 276° |
| 2026-05-08 14:57 | 59.08637 | -33.38310 | 40479 ft | 449 kts | 276° |
| 2026-05-08 14:58 | 59.08782 | -33.50476 | 40480 ft | 448 kts | 276° |
| 2026-05-08 14:58 | 59.08915 | -33.62511 | 40468 ft | 448 kts | 276° |
| 2026-05-08 14:59 | 59.09038 | -33.74636 | 40466 ft | 448 kts | 276° |
| 2026-05-08 14:59 | 59.09201 | -33.92837 | 40466 ft | 448 kts | 276° |
| 2026-05-08 15:00 | 59.09295 | -34.04953 | 40470 ft | 448 kts | 276° |
| 2026-05-08 15:00 | 59.09378 | -34.17059 | 40468 ft | 448 kts | 276° |
| 2026-05-08 15:01 | 59.09450 | -34.29102 | 40465 ft | 448 kts | 275° |
| 2026-05-08 15:01 | 59.09510 | -34.41214 | 40465 ft | 448 kts | 275° |
| 2026-05-08 15:02 | 59.09559 | -34.53325 | 40452 ft | 448 kts | 275° |
| 2026-05-08 15:02 | 59.09597 | -34.65447 | 40455 ft | 448 kts | 275° |
| 2026-05-08 15:03 | 59.09623 | -34.77559 | 40452 ft | 448 kts | 275° |
| 2026-05-08 15:03 | 59.09639 | -34.89664 | 40452 ft | 448 kts | 275° |
| 2026-05-08 15:04 | 59.09643 | -35.01772 | 40446 ft | 448 kts | 275° |
| 2026-05-08 15:04 | 59.09635 | -35.13880 | 40441 ft | 447 kts | 275° |
| 2026-05-08 15:05 | 59.09617 | -35.25984 | 40441 ft | 447 kts | 275° |
| 2026-05-08 15:05 | 59.09587 | -35.38099 | 40441 ft | 447 kts | 274° |
| 2026-05-08 15:06 | 59.09546 | -35.50077 | 40427 ft | 443 kts | 274° |
| 2026-05-08 15:06 | 59.09492 | -35.62033 | 40431 ft | 441 kts | 273° |
| 2026-05-08 15:07 | 59.09430 | -35.73929 | 40415 ft | 438 kts | 273° |
| 2026-05-08 15:07 | 59.09358 | -35.85760 | 40414 ft | 437 kts | 273° |
| 2026-05-08 15:08 | 59.09289 | -35.95687 | 40414 ft | 437 kts | 273° |
| 2026-05-08 15:08 | 59.09181 | -36.09429 | 40416 ft | 437 kts | 273° |
| 2026-05-08 15:09 | 59.09076 | -36.21252 | 40403 ft | 435 kts | 273° |
| 2026-05-08 15:09 | 59.08958 | -36.32869 | 40393 ft | 425 kts | 273° |
| 2026-05-08 15:10 | 59.08836 | -36.44340 | 40396 ft | 424 kts | 273° |
| 2026-05-08 15:10 | 59.08706 | -36.55809 | 40388 ft | 424 kts | 273° |
| 2026-05-08 15:11 | 59.08565 | -36.67276 | 40388 ft | 424 kts | 273° |
| 2026-05-08 15:11 | 59.08412 | -36.78723 | 40381 ft | 422 kts | 272° |
| 2026-05-08 15:12 | 59.08249 | -36.90099 | 40370 ft | 419 kts | 272° |
| 2026-05-08 15:12 | 59.08080 | -37.01343 | 40362 ft | 418 kts | 272° |
| 2026-05-08 15:13 | 59.07900 | -37.12630 | 40368 ft | 417 kts | 272° |
| 2026-05-08 15:13 | 59.07712 | -37.23901 | 40358 ft | 417 kts | 272° |
| 2026-05-08 15:14 | 59.07513 | -37.35175 | 40352 ft | 417 kts | 272° |
| 2026-05-08 15:14 | 59.07304 | -37.46456 | 40352 ft | 417 kts | 272° |
| 2026-05-08 15:15 | 59.07085 | -37.57734 | 40344 ft | 417 kts | 272° |
| 2026-05-08 15:15 | 59.06856 | -37.69007 | 40334 ft | 417 kts | 272° |
| 2026-05-08 15:16 | 59.06617 | -37.80283 | 40329 ft | 417 kts | 272° |
| 2026-05-08 15:16 | 59.06368 | -37.91564 | 40326 ft | 417 kts | 272° |
| 2026-05-08 15:17 | 59.06111 | -38.02819 | 40326 ft | 417 kts | 272° |
| 2026-05-08 15:17 | 59.05843 | -38.14109 | 40325 ft | 418 kts | 272° |
| 2026-05-08 15:18 | 59.05567 | -38.25298 | 40316 ft | 418 kts | 272° |
| 2026-05-08 15:18 | 59.05279 | -38.36573 | 40316 ft | 418 kts | 272° |
| 2026-05-08 15:19 | 59.04982 | -38.47856 | 40314 ft | 418 kts | 272° |
| 2026-05-08 15:19 | 59.04674 | -38.59132 | 40310 ft | 418 kts | 272° |
| 2026-05-08 15:20 | 59.04356 | -38.70437 | 40307 ft | 418 kts | 272° |
| 2026-05-08 15:20 | 59.04029 | -38.81734 | 40299 ft | 418 kts | 272° |
| 2026-05-08 15:21 | 59.03692 | -38.93017 | 40304 ft | 419 kts | 271° |
| 2026-05-08 15:21 | 59.03348 | -39.04198 | 40294 ft | 416 kts | 271° |
| 2026-05-08 15:22 | 59.02993 | -39.15379 | 40289 ft | 415 kts | 271° |
| 2026-05-08 15:22 | 59.02631 | -39.26554 | 40290 ft | 415 kts | 271° |
| 2026-05-08 15:23 | 59.02258 | -39.37756 | 40285 ft | 416 kts | 270° |
| 2026-05-08 15:23 | 59.01875 | -39.48956 | 40275 ft | 416 kts | 270° |
| 2026-05-08 15:24 | 59.01482 | -39.60164 | 40274 ft | 416 kts | 270° |
| 2026-05-08 15:24 | 59.01079 | -39.71367 | 40276 ft | 416 kts | 270° |
| 2026-05-08 15:25 | 59.00666 | -39.82569 | 40270 ft | 416 kts | 270° |
| 2026-05-08 15:25 | 59.00247 | -39.93703 | 40261 ft | 416 kts | 270° |
| 2026-05-08 15:26 | 59.00220 | -40.04924 | 40259 ft | 412 kts | 276° |
| 2026-05-08 15:26 | 59.00585 | -40.15921 | 40256 ft | 409 kts | 276° |
| 2026-05-08 15:27 | 59.01001 | -40.26896 | 40248 ft | 408 kts | 276° |
| 2026-05-08 15:27 | 59.01409 | -40.37860 | 40246 ft | 408 kts | 276° |
| 2026-05-08 15:28 | 59.01801 | -40.48844 | 40245 ft | 408 kts | 276° |
| 2026-05-08 15:28 | 59.02179 | -40.59822 | 40234 ft | 408 kts | 276° |
| 2026-05-08 15:29 | 59.02547 | -40.70815 | 40235 ft | 408 kts | 276° |
| 2026-05-08 15:29 | 59.02905 | -40.81800 | 40231 ft | 408 kts | 276° |
| 2026-05-08 15:30 | 59.03255 | -40.92787 | 40232 ft | 408 kts | 275° |
| 2026-05-08 15:30 | 59.03597 | -41.03775 | 40219 ft | 409 kts | 274° |
| 2026-05-08 15:31 | 59.03929 | -41.14800 | 40219 ft | 409 kts | 274° |
| 2026-05-08 15:31 | 59.04252 | -41.25856 | 40220 ft | 410 kts | 274° |
| 2026-05-08 15:32 | 59.04566 | -41.36910 | 40209 ft | 410 kts | 274° |
| 2026-05-08 15:32 | 59.04870 | -41.47959 | 40208 ft | 410 kts | 274° |
| 2026-05-08 15:33 | 59.05164 | -41.58949 | 40203 ft | 410 kts | 274° |
| 2026-05-08 15:33 | 59.05450 | -41.70015 | 40197 ft | 410 kts | 274° |
| 2026-05-08 15:34 | 59.05726 | -41.81059 | 40197 ft | 410 kts | 274° |
| 2026-05-08 15:34 | 59.05995 | -41.92136 | 40187 ft | 410 kts | 273° |
| 2026-05-08 15:35 | 59.06253 | -42.03224 | 40190 ft | 411 kts | 272° |
| 2026-05-08 15:35 | 59.06502 | -42.14341 | 40189 ft | 411 kts | 272° |
| 2026-05-08 15:36 | 59.06701 | -42.23559 | 40189 ft | 411 kts | 272° |
| 2026-05-08 15:36 | 59.06970 | -42.36490 | 40189 ft | 411 kts | 272° |
| 2026-05-08 15:37 | 59.07191 | -42.47609 | 40183 ft | 411 kts | 272° |
| 2026-05-08 15:37 | 59.07402 | -42.58725 | 40179 ft | 411 kts | 272° |
| 2026-05-08 15:38 | 59.07604 | -42.69863 | 40179 ft | 412 kts | 272° |
| 2026-05-08 15:38 | 59.07797 | -42.80977 | 40179 ft | 411 kts | 271° |
| 2026-05-08 15:39 | 59.07979 | -42.92070 | 40179 ft | 411 kts | 271° |
| 2026-05-08 15:39 | 59.08152 | -43.03175 | 40171 ft | 410 kts | 271° |
| 2026-05-08 15:40 | 59.08314 | -43.14205 | 40170 ft | 410 kts | 271° |
| 2026-05-08 15:40 | 59.08468 | -43.25309 | 40167 ft | 411 kts | 271° |
| 2026-05-08 15:41 | 59.08612 | -43.36424 | 40155 ft | 411 kts | 271° |
| 2026-05-08 15:41 | 59.08747 | -43.47534 | 40158 ft | 411 kts | 271° |
| 2026-05-08 15:42 | 59.08852 | -43.56749 | 40156 ft | 411 kts | 271° |
| 2026-05-08 15:42 | 59.08971 | -43.67858 | 40138 ft | 410 kts | 270° |
| 2026-05-08 15:43 | 59.09079 | -43.78970 | 40136 ft | 411 kts | 270° |
| 2026-05-08 15:43 | 59.09177 | -43.90100 | 40129 ft | 411 kts | 270° |
| 2026-05-08 15:44 | 59.09266 | -44.01244 | 40148 ft | 411 kts | 270° |
| 2026-05-08 15:44 | 59.09346 | -44.12307 | 40127 ft | 411 kts | 270° |
| 2026-05-08 15:45 | 59.09416 | -44.23431 | 40130 ft | 411 kts | 269° |
| 2026-05-08 15:45 | 59.09477 | -44.34559 | 40130 ft | 411 kts | 269° |
| 2026-05-08 15:46 | 59.09528 | -44.45694 | 40114 ft | 412 kts | 269° |
| 2026-05-08 15:46 | 59.09570 | -44.56827 | 40111 ft | 412 kts | 269° |
| 2026-05-08 15:47 | 59.09603 | -44.67963 | 40105 ft | 412 kts | 268° |
| 2026-05-08 15:47 | 59.09625 | -44.79124 | 40095 ft | 412 kts | 268° |
| 2026-05-08 15:48 | 59.09641 | -44.95872 | 40089 ft | 412 kts | 268° |
| 2026-05-08 15:49 | 59.09640 | -45.07034 | 40091 ft | 412 kts | 268° |
| 2026-05-08 15:49 | 59.09629 | -45.18192 | 40076 ft | 412 kts | 268° |
| 2026-05-08 15:50 | 59.09608 | -45.29286 | 40068 ft | 412 kts | 268° |
| 2026-05-08 15:50 | 59.09578 | -45.40449 | 40068 ft | 412 kts | 268° |
| 2026-05-08 15:51 | 59.09541 | -45.51608 | 40055 ft | 412 kts | 267° |
| 2026-05-08 15:51 | 59.09491 | -45.62773 | 40044 ft | 413 kts | 267° |
| 2026-05-08 15:52 | 59.09432 | -45.73934 | 40041 ft | 413 kts | 266° |
| 2026-05-08 15:52 | 59.09363 | -45.85098 | 40021 ft | 413 kts | 266° |
| 2026-05-08 15:53 | 59.09285 | -45.96260 | 40025 ft | 413 kts | 266° |
| 2026-05-08 15:53 | 59.09198 | -46.07424 | 40015 ft | 413 kts | 266° |
| 2026-05-08 15:54 | 59.09101 | -46.18579 | 39994 ft | 413 kts | 266° |
| 2026-05-08 15:54 | 59.08994 | -46.29738 | 40002 ft | 412 kts | 266° |
| 2026-05-08 15:55 | 59.08879 | -46.40895 | 40000 ft | 413 kts | 265° |
| 2026-05-08 15:55 | 59.08686 | -46.57594 | 39967 ft | 414 kts | 265° |
| 2026-05-08 15:56 | 59.08546 | -46.68790 | 39976 ft | 414 kts | 265° |
| 2026-05-08 15:56 | 59.08395 | -46.79984 | 39963 ft | 414 kts | 265° |
| 2026-05-08 15:57 | 59.08235 | -46.91194 | 39933 ft | 414 kts | 265° |
| 2026-05-08 15:57 | 59.08067 | -47.02320 | 39938 ft | 414 kts | 265° |
| 2026-05-08 15:58 | 59.07888 | -47.13510 | 39927 ft | 414 kts | 265° |
| 2026-05-08 15:58 | 59.07699 | -47.24706 | 39928 ft | 414 kts | 265° |
| 2026-05-08 15:59 | 59.07500 | -47.35906 | 39901 ft | 415 kts | 264° |
| 2026-05-08 15:59 | 59.07291 | -47.47149 | 39887 ft | 416 kts | 264° |
| 2026-05-08 16:00 | 59.07072 | -47.58391 | 39884 ft | 416 kts | 264° |
| 2026-05-08 16:00 | 59.06845 | -47.69557 | 39872 ft | 416 kts | 264° |
| 2026-05-08 16:01 | 59.06607 | -47.80795 | 39866 ft | 416 kts | 264° |
| 2026-05-08 16:01 | 59.06359 | -47.92028 | 39865 ft | 416 kts | 264° |
| 2026-05-08 16:02 | 59.06101 | -48.03274 | 39847 ft | 416 kts | 264° |
| 2026-05-08 16:02 | 59.05835 | -48.14501 | 39864 ft | 416 kts | 263° |
| 2026-05-08 16:03 | 59.05559 | -48.25732 | 39832 ft | 417 kts | 263° |
| 2026-05-08 16:03 | 59.05272 | -48.36919 | 39813 ft | 417 kts | 263° |
| 2026-05-08 16:04 | 59.04974 | -48.48187 | 39813 ft | 417 kts | 263° |
| 2026-05-08 16:04 | 59.04667 | -48.59454 | 39799 ft | 417 kts | 263° |
| 2026-05-08 16:05 | 59.04350 | -48.70716 | 39786 ft | 417 kts | 263° |
| 2026-05-08 16:05 | 59.04024 | -48.81967 | 39786 ft | 417 kts | 262° |
| 2026-05-08 16:06 | 59.03687 | -48.93225 | 39772 ft | 417 kts | 262° |
| 2026-05-08 16:06 | 59.03341 | -49.04475 | 39813 ft | 417 kts | 262° |
| 2026-05-08 16:07 | 59.02985 | -49.15665 | 39758 ft | 420 kts | 261° |
| 2026-05-08 16:07 | 59.02615 | -49.27023 | 39752 ft | 422 kts | 261° |
| 2026-05-08 16:08 | 59.02236 | -49.38405 | 39749 ft | 422 kts | 261° |
| 2026-05-08 16:08 | 59.01848 | -49.49781 | 39738 ft | 422 kts | 261° |
| 2026-05-08 16:09 | 59.01513 | -49.59321 | 39724 ft | 422 kts | 261° |
| 2026-05-08 16:09 | 59.01039 | -49.72517 | 39724 ft | 422 kts | 261° |
| 2026-05-08 16:10 | 59.00619 | -49.83870 | 39716 ft | 422 kts | 261° |
| 2026-05-08 16:10 | 59.00190 | -49.95241 | 39750 ft | 422 kts | 260° |
| 2026-05-08 16:11 | 58.99758 | -50.06625 | 39698 ft | 425 kts | 260° |
| 2026-05-08 16:11 | 58.99346 | -50.18100 | 39688 ft | 427 kts | 260° |
| 2026-05-08 16:12 | 58.98935 | -50.29516 | 39696 ft | 427 kts | 260° |
| 2026-05-08 16:12 | 58.98507 | -50.40988 | 39681 ft | 427 kts | 260° |
| 2026-05-08 16:13 | 58.98064 | -50.52470 | 39661 ft | 427 kts | 259° |
| 2026-05-08 16:13 | 58.97610 | -50.63943 | 39666 ft | 427 kts | 259° |
| 2026-05-08 16:14 | 58.97147 | -50.75400 | 39651 ft | 426 kts | 259° |
| 2026-05-08 16:14 | 58.96673 | -50.86871 | 39679 ft | 426 kts | 258° |
| 2026-05-08 16:15 | 58.96193 | -50.98291 | 39647 ft | 425 kts | 258° |
| 2026-05-08 16:15 | 58.95700 | -51.09706 | 39629 ft | 425 kts | 258° |
| 2026-05-08 16:16 | 58.95200 | -51.21038 | 39634 ft | 425 kts | 258° |
| 2026-05-08 16:16 | 58.94688 | -51.32442 | 39626 ft | 425 kts | 258° |
| 2026-05-08 16:17 | 58.94252 | -51.41986 | 39619 ft | 425 kts | 258° |
| 2026-05-08 16:17 | 58.93635 | -51.55243 | 39620 ft | 425 kts | 257° |
| 2026-05-08 16:18 | 58.93093 | -51.66621 | 39609 ft | 425 kts | 257° |
| 2026-05-08 16:18 | 58.92540 | -51.78020 | 39603 ft | 427 kts | 256° |
| 2026-05-08 16:19 | 58.91967 | -51.89536 | 39603 ft | 433 kts | 256° |
| 2026-05-08 16:19 | 58.91384 | -52.01150 | 39593 ft | 434 kts | 256° |
| 2026-05-08 16:20 | 58.90795 | -52.12745 | 39581 ft | 433 kts | 256° |
| 2026-05-08 16:20 | 58.90192 | -52.24347 | 39583 ft | 433 kts | 256° |
| 2026-05-08 16:21 | 58.89583 | -52.35845 | 39573 ft | 433 kts | 256° |
| 2026-05-08 16:21 | 58.88959 | -52.47415 | 39564 ft | 433 kts | 256° |
| 2026-05-08 16:22 | 58.88324 | -52.58992 | 39561 ft | 432 kts | 256° |
| 2026-05-08 16:22 | 58.87673 | -52.70607 | 39560 ft | 439 kts | 256° |
| 2026-05-08 16:23 | 58.86997 | -52.82447 | 39546 ft | 445 kts | 256° |
| 2026-05-08 16:23 | 58.86306 | -52.94432 | 39547 ft | 451 kts | 256° |
| 2026-05-08 16:24 | 58.85602 | -53.06509 | 39536 ft | 452 kts | 256° |
| 2026-05-08 16:24 | 58.84888 | -53.18587 | 39523 ft | 452 kts | 255° |
| 2026-05-08 16:25 | 58.84166 | -53.30553 | 39526 ft | 452 kts | 255° |
| 2026-05-08 16:25 | 58.83426 | -53.42598 | 39519 ft | 451 kts | 255° |
| 2026-05-08 16:26 | 58.82673 | -53.54648 | 39501 ft | 454 kts | 255° |
| 2026-05-08 16:26 | 58.81894 | -53.66852 | 39508 ft | 461 kts | 255° |
| 2026-05-08 16:27 | 58.81097 | -53.79220 | 39499 ft | 465 kts | 255° |
| 2026-05-08 16:27 | 58.80294 | -53.91603 | 39493 ft | 465 kts | 255° |
| 2026-05-08 16:28 | 58.79477 | -54.03965 | 39487 ft | 464 kts | 255° |
| 2026-05-08 16:28 | 58.78647 | -54.16313 | 39484 ft | 464 kts | 255° |
| 2026-05-08 16:29 | 58.77804 | -54.28655 | 39477 ft | 464 kts | 255° |
| 2026-05-08 16:29 | 58.76954 | -54.40917 | 39490 ft | 465 kts | 255° |
| 2026-05-08 16:30 | 58.76080 | -54.53317 | 39458 ft | 469 kts | 255° |
| 2026-05-08 16:30 | 58.75190 | -54.65812 | 39459 ft | 470 kts | 255° |
| 2026-05-08 16:31 | 58.74443 | -54.76188 | 39459 ft | 470 kts | 255° |
| 2026-05-08 16:31 | 58.73534 | -54.88643 | 39447 ft | 470 kts | 255° |
| 2026-05-08 16:32 | 58.72612 | -55.01090 | 39445 ft | 470 kts | 255° |
| 2026-05-08 16:32 | 58.71677 | -55.13538 | 39446 ft | 470 kts | 255° |
| 2026-05-08 16:33 | 58.70729 | -55.25985 | 39460 ft | 470 kts | 255° |
| 2026-05-08 16:33 | 58.69764 | -55.38477 | 39444 ft | 474 kts | 255° |
| 2026-05-08 16:34 | 58.68783 | -55.51022 | 39434 ft | 475 kts | 255° |
| 2026-05-08 16:34 | 58.67797 | -55.63504 | 39423 ft | 475 kts | 254° |
| 2026-05-08 16:35 | 58.66794 | -55.76036 | 39423 ft | 475 kts | 254° |
| 2026-05-08 16:35 | 58.65777 | -55.88570 | 39423 ft | 474 kts | 254° |
| 2026-05-08 16:36 | 58.64748 | -56.01086 | 39414 ft | 474 kts | 254° |
| 2026-05-08 16:36 | 58.63708 | -56.13589 | 39415 ft | 474 kts | 254° |
| 2026-05-08 16:37 | 58.62654 | -56.26098 | 39420 ft | 475 kts | 254° |
| 2026-05-08 16:37 | 58.61585 | -56.38626 | 39404 ft | 476 kts | 254° |
| 2026-05-08 16:38 | 58.60504 | -56.51155 | 39404 ft | 476 kts | 254° |
| 2026-05-08 16:38 | 58.59419 | -56.63596 | 39403 ft | 476 kts | 253° |
| 2026-05-08 16:39 | 58.58315 | -56.76088 | 39404 ft | 476 kts | 253° |
| 2026-05-08 16:39 | 58.57199 | -56.88589 | 39403 ft | 475 kts | 253° |
| 2026-05-08 16:40 | 58.56068 | -57.01084 | 39390 ft | 477 kts | 254° |
| 2026-05-08 16:40 | 58.54922 | -57.13613 | 39388 ft | 478 kts | 254° |
| 2026-05-08 16:41 | 58.53761 | -57.26171 | 39406 ft | 479 kts | 254° |
| 2026-05-08 16:42 | 58.51997 | -57.45010 | 39388 ft | 479 kts | 253° |
| 2026-05-08 16:42 | 58.50806 | -57.57545 | 39375 ft | 479 kts | 253° |
| 2026-05-08 16:43 | 58.49603 | -57.70064 | 39367 ft | 479 kts | 253° |
| 2026-05-08 16:43 | 58.48396 | -57.82494 | 39399 ft | 479 kts | 254° |
| 2026-05-08 16:44 | 58.47164 | -57.95035 | 39370 ft | 481 kts | 253° |
| 2026-05-08 16:44 | 58.45997 | -58.07646 | 39365 ft | 483 kts | 256° |
| 2026-05-08 16:45 | 58.45163 | -58.20429 | 39364 ft | 485 kts | 258° |
| 2026-05-08 16:45 | 58.44364 | -58.33200 | 39362 ft | 484 kts | 257° |
| 2026-05-08 16:46 | 58.43500 | -58.45954 | 39361 ft | 484 kts | 257° |
| 2026-05-08 16:46 | 58.42595 | -58.58661 | 39362 ft | 483 kts | 256° |
| 2026-05-08 16:47 | 58.41668 | -58.71384 | 39365 ft | 485 kts | 257° |
| 2026-05-08 16:47 | 58.40731 | -58.84069 | 39361 ft | 486 kts | 257° |
| 2026-05-08 16:48 | 58.39778 | -58.96838 | 39348 ft | 487 kts | 257° |
| 2026-05-08 16:48 | 58.38813 | -59.09611 | 39358 ft | 487 kts | 257° |
| 2026-05-08 16:49 | 58.37834 | -59.22386 | 39376 ft | 487 kts | 257° |
| 2026-05-08 16:49 | 58.36843 | -59.35146 | 39353 ft | 487 kts | 256° |
| 2026-05-08 16:50 | 58.35837 | -59.47911 | 39385 ft | 487 kts | 257° |
| 2026-05-08 16:50 | 58.34823 | -59.60622 | 39367 ft | 489 kts | 256° |
| 2026-05-08 16:51 | 58.33789 | -59.73416 | 39368 ft | 489 kts | 256° |
| 2026-05-08 16:51 | 58.32742 | -59.86199 | 39392 ft | 489 kts | 256° |
| 2026-05-08 16:52 | 58.31683 | -59.98973 | 39374 ft | 489 kts | 256° |
| 2026-05-08 16:52 | 58.30611 | -60.11751 | 39372 ft | 489 kts | 256° |
| 2026-05-08 16:53 | 58.28978 | -60.30895 | 39371 ft | 489 kts | 256° |
| 2026-05-08 16:53 | 58.27872 | -60.43666 | 39368 ft | 490 kts | 256° |
| 2026-05-08 16:54 | 58.26758 | -60.56386 | 39365 ft | 490 kts | 256° |
| 2026-05-08 16:54 | 58.25626 | -60.69155 | 39375 ft | 490 kts | 256° |
| 2026-05-08 16:55 | 58.24482 | -60.81905 | 39376 ft | 490 kts | 256° |
| 2026-05-08 16:55 | 58.23325 | -60.94642 | 39370 ft | 490 kts | 256° |
| 2026-05-08 16:56 | 58.22154 | -61.07385 | 39389 ft | 490 kts | 256° |
| 2026-05-08 16:56 | 58.20969 | -61.20140 | 39371 ft | 491 kts | 256° |
| 2026-05-08 16:57 | 58.19770 | -61.32906 | 39378 ft | 491 kts | 256° |
| 2026-05-08 16:57 | 58.18558 | -61.45656 | 39379 ft | 491 kts | 256° |
| 2026-05-08 16:58 | 58.17342 | -61.58315 | 39371 ft | 491 kts | 255° |
| 2026-05-08 16:58 | 58.16106 | -61.71040 | 39390 ft | 491 kts | 255° |
| 2026-05-08 16:59 | 58.14858 | -61.83753 | 39401 ft | 491 kts | 255° |
| 2026-05-08 16:59 | 58.13594 | -61.96478 | 39374 ft | 492 kts | 255° |
| 2026-05-08 17:00 | 58.12316 | -62.09213 | 39390 ft | 492 kts | 255° |
| 2026-05-08 17:00 | 58.11034 | -62.21860 | 39394 ft | 492 kts | 255° |
| 2026-05-08 17:01 | 58.09733 | -62.34558 | 39390 ft | 492 kts | 255° |
| 2026-05-08 17:01 | 58.08417 | -62.47266 | 39404 ft | 492 kts | 255° |
| 2026-05-08 17:02 | 58.07092 | -62.59936 | 39405 ft | 492 kts | 255° |
| 2026-05-08 17:02 | 58.05751 | -62.72624 | 39405 ft | 492 kts | 254° |
| 2026-05-08 17:03 | 58.04399 | -62.85284 | 39429 ft | 492 kts | 254° |
| 2026-05-08 17:03 | 58.03036 | -62.97929 | 39430 ft | 491 kts | 255° |
| 2026-05-08 17:04 | 58.01670 | -63.10491 | 39438 ft | 491 kts | 253° |
| 2026-05-08 17:04 | 58.00281 | -63.23111 | 39466 ft | 491 kts | 254° |
| 2026-05-08 17:05 | 57.99052 | -63.35803 | 39464 ft | 494 kts | 258° |
| 2026-05-08 17:05 | 57.98290 | -63.48695 | 39475 ft | 495 kts | 260° |
| 2026-05-08 17:06 | 57.97541 | -63.61613 | 39504 ft | 496 kts | 259° |
| 2026-05-08 17:06 | 57.96703 | -63.74525 | 39517 ft | 495 kts | 258° |
| 2026-05-08 17:07 | 57.95822 | -63.87297 | 39516 ft | 495 kts | 259° |
| 2026-05-08 17:07 | 57.94914 | -64.00151 | 39539 ft | 495 kts | 258° |
| 2026-05-08 17:08 | 57.93996 | -64.12993 | 39552 ft | 495 kts | 258° |
| 2026-05-08 17:08 | 57.93068 | -64.25815 | 39558 ft | 495 kts | 258° |
| 2026-05-08 17:09 | 57.92128 | -64.38642 | 39570 ft | 495 kts | 258° |
| 2026-05-08 17:09 | 57.91176 | -64.51444 | 39584 ft | 495 kts | 258° |
| 2026-05-08 17:10 | 57.90208 | -64.64271 | 39590 ft | 495 kts | 258° |
| 2026-05-08 17:10 | 57.89230 | -64.77070 | 39579 ft | 494 kts | 258° |
| 2026-05-08 17:11 | 57.88240 | -64.89821 | 39609 ft | 494 kts | 258° |
| 2026-05-08 17:11 | 57.87239 | -65.02547 | 39602 ft | 495 kts | 258° |
| 2026-05-08 17:12 | 57.86220 | -65.15339 | 39607 ft | 496 kts | 258° |
| 2026-05-08 17:12 | 57.85187 | -65.28141 | 39620 ft | 495 kts | 258° |
| 2026-05-08 17:13 | 57.84142 | -65.40929 | 39620 ft | 495 kts | 258° |
| 2026-05-08 17:13 | 57.83084 | -65.53705 | 39624 ft | 495 kts | 257° |
| 2026-05-08 17:14 | 57.82014 | -65.66480 | 39638 ft | 496 kts | 258° |
| 2026-05-08 17:14 | 57.80929 | -65.79257 | 39627 ft | 496 kts | 258° |
| 2026-05-08 17:15 | 57.79831 | -65.92028 | 39624 ft | 496 kts | 258° |
| 2026-05-08 17:15 | 57.78719 | -66.04797 | 39622 ft | 496 kts | 257° |
| 2026-05-08 17:16 | 57.77594 | -66.17571 | 39637 ft | 496 kts | 257° |
| 2026-05-08 17:16 | 57.76465 | -66.30241 | 39632 ft | 496 kts | 257° |
| 2026-05-08 17:17 | 57.75315 | -66.42989 | 39636 ft | 496 kts | 257° |
| 2026-05-08 17:17 | 57.74151 | -66.55739 | 39644 ft | 497 kts | 257° |
| 2026-05-08 17:18 | 57.72974 | -66.68493 | 39647 ft | 497 kts | 257° |
| 2026-05-08 17:18 | 57.71786 | -66.81216 | 39647 ft | 496 kts | 257° |
| 2026-05-08 17:19 | 57.70585 | -66.93933 | 39658 ft | 496 kts | 257° |
| 2026-05-08 17:19 | 57.69381 | -67.06544 | 39667 ft | 496 kts | 257° |
| 2026-05-08 17:20 | 57.68156 | -67.19238 | 39661 ft | 496 kts | 257° |
| 2026-05-08 17:20 | 57.66917 | -67.31930 | 39661 ft | 497 kts | 257° |
| 2026-05-08 17:21 | 57.65870 | -67.42558 | 39663 ft | 496 kts | 257° |
| 2026-05-08 17:21 | 57.64615 | -67.55158 | 39666 ft | 496 kts | 257° |
| 2026-05-08 17:22 | 57.63341 | -67.67827 | 39666 ft | 496 kts | 256° |
| 2026-05-08 17:22 | 57.62053 | -67.80493 | 39681 ft | 496 kts | 256° |
| 2026-05-08 17:23 | 57.60755 | -67.93128 | 39677 ft | 497 kts | 256° |
| 2026-05-08 17:23 | 57.59441 | -68.05788 | 39679 ft | 497 kts | 256° |
| 2026-05-08 17:24 | 57.58117 | -68.18410 | 39682 ft | 497 kts | 256° |
| 2026-05-08 17:24 | 57.56780 | -68.31036 | 39682 ft | 497 kts | 256° |
| 2026-05-08 17:25 | 57.55427 | -68.43670 | 39687 ft | 497 kts | 256° |
| 2026-05-08 17:25 | 57.54065 | -68.56270 | 39696 ft | 497 kts | 256° |
| 2026-05-08 17:26 | 57.52694 | -68.68822 | 39692 ft | 497 kts | 256° |
| 2026-05-08 17:26 | 57.51301 | -68.81458 | 39693 ft | 497 kts | 256° |
| 2026-05-08 17:27 | 57.49901 | -68.94040 | 39692 ft | 497 kts | 256° |
| 2026-05-08 17:27 | 57.48487 | -69.06617 | 39692 ft | 497 kts | 256° |
| 2026-05-08 17:28 | 57.47059 | -69.19191 | 39706 ft | 497 kts | 256° |
| 2026-05-08 17:28 | 57.45620 | -69.31753 | 39694 ft | 498 kts | 256° |
| 2026-05-08 17:29 | 57.44166 | -69.44314 | 39695 ft | 498 kts | 255° |
| 2026-05-08 17:29 | 57.42699 | -69.56881 | 39694 ft | 498 kts | 255° |
| 2026-05-08 17:30 | 57.41221 | -69.69419 | 39708 ft | 498 kts | 255° |
| 2026-05-08 17:30 | 57.39739 | -69.81877 | 39698 ft | 498 kts | 255° |
| 2026-05-08 17:31 | 57.38236 | -69.94401 | 39703 ft | 497 kts | 255° |
| 2026-05-08 17:31 | 57.36716 | -70.06957 | 39705 ft | 498 kts | 255° |
| 2026-05-08 17:32 | 57.35186 | -70.19470 | 39703 ft | 498 kts | 255° |
| 2026-05-08 17:32 | 57.33643 | -70.31984 | 39704 ft | 498 kts | 255° |
| 2026-05-08 17:33 | 57.32088 | -70.44480 | 39705 ft | 498 kts | 255° |
| 2026-05-08 17:33 | 57.30522 | -70.56964 | 39704 ft | 498 kts | 255° |
| 2026-05-08 17:34 | 57.28953 | -70.69354 | 39706 ft | 499 kts | 255° |
| 2026-05-08 17:34 | 57.27358 | -70.81846 | 39705 ft | 499 kts | 255° |
| 2026-05-08 17:35 | 57.25751 | -70.94326 | 39705 ft | 499 kts | 255° |
| 2026-05-08 17:35 | 57.24132 | -71.06786 | 39704 ft | 499 kts | 254° |
| 2026-05-08 17:36 | 57.22501 | -71.19237 | 39707 ft | 499 kts | 254° |
| 2026-05-08 17:36 | 57.20858 | -71.31677 | 39707 ft | 499 kts | 254° |
| 2026-05-08 17:37 | 57.19201 | -71.44114 | 39706 ft | 499 kts | 254° |
| 2026-05-08 17:37 | 57.17533 | -71.56525 | 39706 ft | 499 kts | 254° |
| 2026-05-08 17:38 | 57.15853 | -71.68933 | 39708 ft | 499 kts | 254° |
| 2026-05-08 17:38 | 57.14159 | -71.81341 | 39708 ft | 499 kts | 254° |
| 2026-05-08 17:39 | 57.12466 | -71.93634 | 39705 ft | 499 kts | 253° |
| 2026-05-08 17:39 | 57.10750 | -72.06004 | 39708 ft | 499 kts | 253° |
| 2026-05-08 17:40 | 57.09018 | -72.18388 | 39708 ft | 499 kts | 253° |
| 2026-05-08 17:40 | 57.07274 | -72.30757 | 39705 ft | 499 kts | 253° |
| 2026-05-08 17:41 | 57.05518 | -72.43111 | 39706 ft | 499 kts | 253° |
| 2026-05-08 17:41 | 57.03750 | -72.55456 | 39709 ft | 499 kts | 253° |
| 2026-05-08 17:42 | 57.01971 | -72.67775 | 39715 ft | 499 kts | 253° |
| 2026-05-08 17:42 | 57.00190 | -72.80021 | 39714 ft | 500 kts | 253° |
| 2026-05-08 17:43 | 56.98382 | -72.92356 | 39708 ft | 500 kts | 253° |
| 2026-05-08 17:43 | 56.96563 | -73.04670 | 39711 ft | 500 kts | 253° |
| 2026-05-08 17:44 | 56.94734 | -73.16961 | 39711 ft | 500 kts | 253° |
| 2026-05-08 17:44 | 56.92893 | -73.29236 | 39710 ft | 500 kts | 253° |
| 2026-05-08 17:45 | 56.91037 | -73.41513 | 39702 ft | 500 kts | 253° |
| 2026-05-08 17:45 | 56.89181 | -73.53708 | 39709 ft | 501 kts | 253° |
| 2026-05-08 17:46 | 56.87301 | -73.65969 | 39701 ft | 501 kts | 253° |
| 2026-05-08 17:46 | 56.85407 | -73.78228 | 39698 ft | 500 kts | 253° |
| 2026-05-08 17:47 | 56.83504 | -73.90455 | 39694 ft | 500 kts | 252° |
| 2026-05-08 17:47 | 56.81913 | -74.00612 | 39707 ft | 500 kts | 252° |
| 2026-05-08 17:48 | 56.79662 | -74.14874 | 39694 ft | 501 kts | 252° |
| 2026-05-08 17:48 | 56.77720 | -74.27088 | 39692 ft | 501 kts | 252° |
| 2026-05-08 17:49 | 56.75768 | -74.39270 | 39705 ft | 501 kts | 252° |
| 2026-05-08 17:49 | 56.73818 | -74.51363 | 39695 ft | 501 kts | 252° |
| 2026-05-08 17:50 | 56.71842 | -74.63527 | 39689 ft | 500 kts | 252° |
| 2026-05-08 17:50 | 56.69855 | -74.75667 | 39692 ft | 500 kts | 252° |
| 2026-05-08 17:51 | 56.67856 | -74.87801 | 39692 ft | 500 kts | 252° |
| 2026-05-08 17:51 | 56.65847 | -74.99916 | 39692 ft | 500 kts | 252° |
| 2026-05-08 17:52 | 56.63828 | -75.12000 | 39691 ft | 500 kts | 252° |
| 2026-05-08 17:53 | 56.60786 | -75.30056 | 39691 ft | 500 kts | 252° |
| 2026-05-08 17:53 | 56.58735 | -75.42127 | 39692 ft | 500 kts | 252° |
| 2026-05-08 17:54 | 56.56671 | -75.54193 | 39691 ft | 500 kts | 251° |
| 2026-05-08 17:54 | 56.54596 | -75.66239 | 39689 ft | 501 kts | 251° |
| 2026-05-08 17:55 | 56.52512 | -75.78260 | 39689 ft | 500 kts | 251° |
| 2026-05-08 17:55 | 56.50417 | -75.90263 | 39690 ft | 500 kts | 251° |
| 2026-05-08 17:56 | 56.48309 | -76.02264 | 39690 ft | 500 kts | 251° |
| 2026-05-08 17:56 | 56.46191 | -76.14235 | 39680 ft | 500 kts | 251° |
| 2026-05-08 17:57 | 56.44075 | -76.26123 | 39675 ft | 500 kts | 251° |
| 2026-05-08 17:57 | 56.41934 | -76.38078 | 39674 ft | 500 kts | 251° |
| 2026-05-08 17:58 | 56.39783 | -76.50003 | 39674 ft | 500 kts | 251° |
| 2026-05-08 17:58 | 56.37616 | -76.61944 | 39675 ft | 499 kts | 251° |
| 2026-05-08 17:59 | 56.35442 | -76.73840 | 39678 ft | 499 kts | 251° |
| 2026-05-08 17:59 | 56.33258 | -76.85722 | 39671 ft | 499 kts | 251° |
| 2026-05-08 18:00 | 56.31433 | -76.95593 | 39666 ft | 499 kts | 250° |
| 2026-05-08 18:00 | 56.27760 | -77.15305 | 39666 ft | 499 kts | 250° |
| 2026-05-08 18:01 | 56.25531 | -77.27167 | 39661 ft | 499 kts | 250° |
| 2026-05-08 18:01 | 56.23295 | -77.38989 | 39659 ft | 499 kts | 250° |
| 2026-05-08 18:02 | 56.21428 | -77.48811 | 39660 ft | 499 kts | 250° |
| 2026-05-08 18:02 | 56.18790 | -77.62592 | 39660 ft | 499 kts | 250° |
| 2026-05-08 18:03 | 56.16534 | -77.74305 | 39659 ft | 499 kts | 250° |
| 2026-05-08 18:03 | 56.14258 | -77.86053 | 39657 ft | 499 kts | 250° |
| 2026-05-08 18:04 | 56.11968 | -77.97795 | 39653 ft | 499 kts | 250° |
| 2026-05-08 18:04 | 56.09666 | -78.09531 | 39649 ft | 499 kts | 250° |
| 2026-05-08 18:05 | 56.07353 | -78.21253 | 39650 ft | 499 kts | 250° |
| 2026-05-08 18:05 | 56.05029 | -78.32961 | 39651 ft | 499 kts | 250° |
| 2026-05-08 18:06 | 56.02693 | -78.44658 | 39651 ft | 499 kts | 250° |
| 2026-05-08 18:06 | 56.00348 | -78.56327 | 39652 ft | 499 kts | 250° |
| 2026-05-08 18:07 | 55.98008 | -78.67910 | 39652 ft | 498 kts | 250° |
| 2026-05-08 18:07 | 55.95644 | -78.79541 | 39651 ft | 498 kts | 249° |
| 2026-05-08 18:08 | 55.93268 | -78.91161 | 39647 ft | 498 kts | 249° |
| 2026-05-08 18:08 | 55.90884 | -79.02755 | 39649 ft | 498 kts | 249° |
| 2026-05-08 18:09 | 55.88488 | -79.14339 | 39646 ft | 498 kts | 249° |
| 2026-05-08 18:09 | 55.86488 | -79.23955 | 39648 ft | 498 kts | 249° |
| 2026-05-08 18:10 | 55.84072 | -79.35514 | 39638 ft | 498 kts | 249° |
| 2026-05-08 18:10 | 55.81645 | -79.47061 | 39641 ft | 498 kts | 249° |
| 2026-05-08 18:11 | 55.79210 | -79.58576 | 39639 ft | 497 kts | 249° |
| 2026-05-08 18:11 | 55.76762 | -79.70088 | 39638 ft | 497 kts | 249° |
| 2026-05-08 18:12 | 55.74322 | -79.81501 | 39634 ft | 497 kts | 249° |
| 2026-05-08 18:12 | 55.71856 | -79.92969 | 39626 ft | 498 kts | 249° |
| 2026-05-08 18:13 | 55.69355 | -80.04422 | 39635 ft | 498 kts | 248° |
| 2026-05-08 18:13 | 55.66566 | -80.15660 | 39620 ft | 498 kts | 245° |
| 2026-05-08 18:14 | 55.63685 | -80.26809 | 39623 ft | 498 kts | 245° |
| 2026-05-08 18:14 | 55.60829 | -80.37977 | 39627 ft | 498 kts | 246° |
| 2026-05-08 18:15 | 55.57996 | -80.49138 | 39619 ft | 498 kts | 246° |
| 2026-05-08 18:15 | 55.55155 | -80.60314 | 39621 ft | 498 kts | 246° |
| 2026-05-08 18:16 | 55.52325 | -80.71394 | 39623 ft | 498 kts | 246° |
| 2026-05-08 18:16 | 55.49463 | -80.82531 | 39622 ft | 498 kts | 246° |
| 2026-05-08 18:17 | 55.46588 | -80.93664 | 39612 ft | 498 kts | 245° |
| 2026-05-08 18:17 | 55.43703 | -81.04779 | 39620 ft | 498 kts | 246° |
| 2026-05-08 18:18 | 55.40816 | -81.15845 | 39615 ft | 497 kts | 246° |
| 2026-05-08 18:18 | 55.37917 | -81.26905 | 39610 ft | 497 kts | 246° |
| 2026-05-08 18:19 | 55.35011 | -81.37936 | 39606 ft | 497 kts | 245° |
| 2026-05-08 18:19 | 55.32110 | -81.48896 | 39614 ft | 498 kts | 245° |
| 2026-05-08 18:20 | 55.29184 | -81.59896 | 39611 ft | 497 kts | 245° |
| 2026-05-08 18:20 | 55.26242 | -81.70903 | 39604 ft | 498 kts | 245° |
| 2026-05-08 18:21 | 55.23294 | -81.81878 | 39606 ft | 498 kts | 245° |
| 2026-05-08 18:21 | 55.20333 | -81.92852 | 39610 ft | 498 kts | 245° |
| 2026-05-08 18:22 | 55.17358 | -82.03822 | 39602 ft | 498 kts | 245° |
| 2026-05-08 18:22 | 55.14397 | -82.14689 | 39607 ft | 498 kts | 245° |
| 2026-05-08 18:23 | 55.11407 | -82.25609 | 39601 ft | 498 kts | 245° |
| 2026-05-08 18:23 | 55.08410 | -82.36504 | 39595 ft | 498 kts | 245° |
| 2026-05-08 18:24 | 55.05398 | -82.47403 | 39600 ft | 499 kts | 245° |
| 2026-05-08 18:24 | 55.02371 | -82.58304 | 39597 ft | 498 kts | 245° |
| 2026-05-08 18:25 | 54.99339 | -82.69170 | 39595 ft | 498 kts | 245° |
| 2026-05-08 18:25 | 54.96304 | -82.79995 | 39595 ft | 498 kts | 245° |
| 2026-05-08 18:26 | 54.93275 | -82.90752 | 39595 ft | 498 kts | 244° |
| 2026-05-08 18:26 | 54.90216 | -83.01561 | 39594 ft | 498 kts | 244° |
| 2026-05-08 18:27 | 54.87670 | -83.10522 | 39597 ft | 498 kts | 244° |
| 2026-05-08 18:27 | 54.84074 | -83.23119 | 39591 ft | 498 kts | 244° |
| 2026-05-08 18:28 | 54.80983 | -83.33892 | 39592 ft | 498 kts | 244° |
| 2026-05-08 18:28 | 54.77890 | -83.44621 | 39592 ft | 498 kts | 244° |
| 2026-05-08 18:29 | 54.74807 | -83.55271 | 39589 ft | 497 kts | 244° |
| 2026-05-08 18:29 | 54.71677 | -83.66029 | 39590 ft | 497 kts | 244° |
| 2026-05-08 18:30 | 54.68556 | -83.76714 | 39590 ft | 497 kts | 244° |
| 2026-05-08 18:30 | 54.65451 | -83.87289 | 39588 ft | 497 kts | 244° |
| 2026-05-08 18:31 | 54.62312 | -83.97936 | 39588 ft | 497 kts | 244° |
| 2026-05-08 18:31 | 54.59165 | -84.08562 | 39588 ft | 497 kts | 244° |
| 2026-05-08 18:32 | 54.56012 | -84.19156 | 39589 ft | 497 kts | 244° |
| 2026-05-08 18:32 | 54.52849 | -84.29741 | 39589 ft | 496 kts | 244° |
| 2026-05-08 18:33 | 54.49681 | -84.40297 | 39592 ft | 496 kts | 244° |
| 2026-05-08 18:33 | 54.46498 | -84.50851 | 39592 ft | 496 kts | 244° |
| 2026-05-08 18:34 | 54.43333 | -84.61303 | 39595 ft | 497 kts | 244° |
| 2026-05-08 18:34 | 54.40130 | -84.71832 | 39594 ft | 497 kts | 244° |
| 2026-05-08 18:35 | 54.36918 | -84.82342 | 39591 ft | 497 kts | 244° |
| 2026-05-08 18:35 | 54.33696 | -84.92839 | 39595 ft | 496 kts | 244° |
| 2026-05-08 18:36 | 54.30473 | -85.03294 | 39594 ft | 496 kts | 243° |
| 2026-05-08 18:36 | 54.27258 | -85.13680 | 39595 ft | 496 kts | 243° |
| 2026-05-08 18:37 | 54.24013 | -85.24116 | 39593 ft | 496 kts | 243° |
| 2026-05-08 18:37 | 54.20764 | -85.34520 | 39594 ft | 497 kts | 243° |
| 2026-05-08 18:38 | 54.17501 | -85.44923 | 39597 ft | 497 kts | 243° |
| 2026-05-08 18:38 | 54.14233 | -85.55299 | 39606 ft | 496 kts | 243° |
| 2026-05-08 18:39 | 54.10958 | -85.65649 | 39608 ft | 496 kts | 243° |
| 2026-05-08 18:39 | 54.07674 | -85.75985 | 39605 ft | 496 kts | 243° |
| 2026-05-08 18:40 | 54.04404 | -85.86233 | 39606 ft | 496 kts | 243° |
| 2026-05-08 18:40 | 54.01099 | -85.96548 | 39611 ft | 496 kts | 243° |
| 2026-05-08 18:41 | 53.97787 | -86.06839 | 39607 ft | 496 kts | 243° |
| 2026-05-08 18:41 | 53.94462 | -86.17128 | 39605 ft | 496 kts | 243° |
| 2026-05-08 18:42 | 53.91130 | -86.27395 | 39609 ft | 496 kts | 243° |
| 2026-05-08 18:42 | 53.87797 | -86.37621 | 39605 ft | 495 kts | 243° |
| 2026-05-08 18:43 | 53.84455 | -86.47831 | 39610 ft | 496 kts | 243° |
| 2026-05-08 18:43 | 53.81099 | -86.58045 | 39611 ft | 496 kts | 243° |
| 2026-05-08 18:44 | 53.77742 | -86.68216 | 39611 ft | 496 kts | 243° |
| 2026-05-08 18:44 | 53.74389 | -86.78332 | 39611 ft | 496 kts | 243° |
| 2026-05-08 18:45 | 53.71009 | -86.88489 | 39603 ft | 496 kts | 243° |
| 2026-05-08 18:45 | 53.67621 | -86.98626 | 39613 ft | 494 kts | 243° |
| 2026-05-08 18:46 | 53.64237 | -87.08711 | 39615 ft | 493 kts | 243° |
| 2026-05-08 18:46 | 53.60852 | -87.18759 | 39615 ft | 493 kts | 243° |
| 2026-05-08 18:47 | 53.57453 | -87.28807 | 39615 ft | 493 kts | 242° |
| 2026-05-08 18:47 | 53.54068 | -87.38772 | 39612 ft | 493 kts | 242° |
| 2026-05-08 18:48 | 53.50653 | -87.48787 | 39614 ft | 494 kts | 242° |
| 2026-05-08 18:48 | 53.47227 | -87.58791 | 39621 ft | 493 kts | 242° |
| 2026-05-08 18:49 | 53.43801 | -87.68755 | 39618 ft | 493 kts | 242° |
| 2026-05-08 18:49 | 53.40359 | -87.78724 | 39629 ft | 493 kts | 242° |
| 2026-05-08 18:50 | 53.36913 | -87.88667 | 39628 ft | 494 kts | 242° |
| 2026-05-08 18:50 | 53.33457 | -87.98597 | 39623 ft | 494 kts | 242° |
| 2026-05-08 18:51 | 53.29992 | -88.08514 | 39634 ft | 494 kts | 242° |
| 2026-05-08 18:51 | 53.26514 | -88.18428 | 39636 ft | 494 kts | 242° |
| 2026-05-08 18:52 | 53.23054 | -88.28253 | 39639 ft | 494 kts | 242° |
| 2026-05-08 18:52 | 53.19566 | -88.38114 | 39644 ft | 492 kts | 242° |
| 2026-05-08 18:53 | 53.16074 | -88.47952 | 39635 ft | 492 kts | 242° |
| 2026-05-08 18:53 | 53.12579 | -88.57761 | 39642 ft | 493 kts | 242° |
| 2026-05-08 18:54 | 53.09067 | -88.67575 | 39642 ft | 493 kts | 242° |
| 2026-05-08 18:54 | 53.05547 | -88.77374 | 39642 ft | 493 kts | 242° |
| 2026-05-08 18:55 | 53.00278 | -88.91970 | 39631 ft | 493 kts | 241° |
| 2026-05-08 18:56 | 52.96720 | -89.01779 | 39643 ft | 493 kts | 241° |
| 2026-05-08 18:56 | 52.93198 | -89.11453 | 39649 ft | 493 kts | 241° |
| 2026-05-08 18:57 | 52.89641 | -89.21185 | 39650 ft | 493 kts | 241° |
| 2026-05-08 18:57 | 52.86074 | -89.30905 | 39649 ft | 493 kts | 241° |
| 2026-05-08 18:58 | 52.82505 | -89.40592 | 39656 ft | 493 kts | 241° |
| 2026-05-08 18:58 | 52.79522 | -89.48660 | 39652 ft | 494 kts | 241° |
| 2026-05-08 18:59 | 52.75935 | -89.58328 | 39645 ft | 494 kts | 240° |
| 2026-05-08 18:59 | 52.72341 | -89.67980 | 39652 ft | 493 kts | 240° |
| 2026-05-08 19:00 | 52.68739 | -89.77614 | 39658 ft | 493 kts | 240° |
| 2026-05-08 19:00 | 52.65130 | -89.87229 | 39654 ft | 493 kts | 240° |
| 2026-05-08 19:01 | 52.61541 | -89.96758 | 39654 ft | 493 kts | 240° |
| 2026-05-08 19:01 | 52.57919 | -90.06338 | 39652 ft | 494 kts | 240° |
| 2026-05-08 19:02 | 52.54273 | -90.15943 | 39650 ft | 495 kts | 240° |
| 2026-05-08 19:02 | 52.50623 | -90.25524 | 39651 ft | 494 kts | 240° |
| 2026-05-08 19:03 | 52.46968 | -90.35079 | 39650 ft | 494 kts | 240° |
| 2026-05-08 19:03 | 52.43312 | -90.44600 | 39650 ft | 494 kts | 240° |
| 2026-05-08 19:04 | 52.39648 | -90.54112 | 39648 ft | 494 kts | 240° |
| 2026-05-08 19:04 | 52.35967 | -90.63630 | 39650 ft | 495 kts | 240° |
| 2026-05-08 19:05 | 52.32301 | -90.73071 | 39653 ft | 495 kts | 239° |
| 2026-05-08 19:05 | 52.28603 | -90.82562 | 39655 ft | 495 kts | 239° |
| 2026-05-08 19:06 | 52.24900 | -90.92029 | 39652 ft | 494 kts | 239° |
| 2026-05-08 19:06 | 52.21191 | -91.01476 | 39647 ft | 494 kts | 239° |
| 2026-05-08 19:07 | 52.17476 | -91.10905 | 39651 ft | 495 kts | 239° |
| 2026-05-08 19:07 | 52.13744 | -91.20344 | 39653 ft | 495 kts | 239° |
| 2026-05-08 19:08 | 52.10007 | -91.29756 | 39655 ft | 495 kts | 239° |
| 2026-05-08 19:08 | 52.06283 | -91.39104 | 39662 ft | 495 kts | 239° |
| 2026-05-08 19:09 | 52.02532 | -91.48483 | 39651 ft | 495 kts | 239° |
| 2026-05-08 19:09 | 51.98765 | -91.57870 | 39664 ft | 495 kts | 239° |
| 2026-05-08 19:10 | 51.95005 | -91.67206 | 39664 ft | 495 kts | 239° |
| 2026-05-08 19:10 | 51.91229 | -91.76545 | 39670 ft | 495 kts | 239° |
| 2026-05-08 19:11 | 51.87448 | -91.85863 | 39670 ft | 495 kts | 239° |
| 2026-05-08 19:11 | 51.83662 | -91.95162 | 39652 ft | 495 kts | 239° |
| 2026-05-08 19:12 | 51.79861 | -92.04461 | 39666 ft | 495 kts | 239° |
| 2026-05-08 19:12 | 51.76057 | -92.13734 | 39666 ft | 495 kts | 239° |
| 2026-05-08 19:13 | 51.72282 | -92.22905 | 39666 ft | 494 kts | 239° |
| 2026-05-08 19:13 | 51.68470 | -92.32133 | 39666 ft | 494 kts | 239° |
| 2026-05-08 19:14 | 51.64655 | -92.41336 | 39664 ft | 494 kts | 239° |
| 2026-05-08 19:14 | 51.60832 | -92.50523 | 39666 ft | 494 kts | 239° |
| 2026-05-08 19:15 | 51.56998 | -92.59704 | 39668 ft | 494 kts | 239° |
| 2026-05-08 19:15 | 51.53154 | -92.68878 | 39665 ft | 494 kts | 239° |
| 2026-05-08 19:16 | 51.49309 | -92.78020 | 39675 ft | 493 kts | 239° |
| 2026-05-08 19:16 | 51.45469 | -92.87121 | 39675 ft | 493 kts | 239° |
| 2026-05-08 19:17 | 51.41611 | -92.96231 | 39672 ft | 493 kts | 239° |
| 2026-05-08 19:17 | 51.37774 | -93.05259 | 39677 ft | 493 kts | 239° |
| 2026-05-08 19:18 | 51.33906 | -93.14329 | 39676 ft | 493 kts | 239° |
| 2026-05-08 19:18 | 51.30031 | -93.23385 | 39672 ft | 493 kts | 239° |
| 2026-05-08 19:19 | 51.26151 | -93.32418 | 39680 ft | 493 kts | 239° |
| 2026-05-08 19:19 | 51.22268 | -93.41425 | 39677 ft | 492 kts | 239° |
| 2026-05-08 19:20 | 51.18383 | -93.50411 | 39688 ft | 492 kts | 239° |
| 2026-05-08 19:20 | 51.14487 | -93.59389 | 39690 ft | 492 kts | 239° |
| 2026-05-08 19:21 | 51.10584 | -93.68354 | 39696 ft | 492 kts | 239° |
| 2026-05-08 19:21 | 51.06537 | -93.77159 | 39659 ft | 495 kts | 233° |
| 2026-05-08 19:22 | 51.02059 | -93.85398 | 39651 ft | 496 kts | 232° |
| 2026-05-08 19:22 | 50.97463 | -93.93580 | 39663 ft | 496 kts | 232° |
| 2026-05-08 19:23 | 50.92854 | -94.01732 | 39673 ft | 496 kts | 232° |
| 2026-05-08 19:23 | 50.88239 | -94.09895 | 39688 ft | 496 kts | 232° |
| 2026-05-08 19:24 | 50.83662 | -94.17979 | 39701 ft | 496 kts | 232° |
| 2026-05-08 19:24 | 50.79048 | -94.26108 | 39707 ft | 496 kts | 232° |
| 2026-05-08 19:25 | 50.74437 | -94.34203 | 39712 ft | 495 kts | 232° |
| 2026-05-08 19:25 | 50.69822 | -94.42278 | 39713 ft | 495 kts | 231° |
| 2026-05-08 19:26 | 50.65198 | -94.50345 | 39710 ft | 495 kts | 231° |
| 2026-05-08 19:26 | 50.60573 | -94.58388 | 39708 ft | 495 kts | 231° |
| 2026-05-08 19:27 | 50.55941 | -94.66416 | 39706 ft | 495 kts | 231° |
| 2026-05-08 19:27 | 50.51299 | -94.74438 | 39715 ft | 495 kts | 231° |
| 2026-05-08 19:28 | 50.46661 | -94.82426 | 39724 ft | 495 kts | 231° |
| 2026-05-08 19:28 | 50.42017 | -94.90401 | 39725 ft | 495 kts | 231° |
| 2026-05-08 19:29 | 50.37367 | -94.98361 | 39724 ft | 495 kts | 231° |
| 2026-05-08 19:29 | 50.32739 | -95.06257 | 39730 ft | 495 kts | 231° |
| 2026-05-08 19:30 | 50.28080 | -95.14180 | 39731 ft | 495 kts | 231° |
| 2026-05-08 19:30 | 50.23418 | -95.22086 | 39739 ft | 494 kts | 231° |
| 2026-05-08 19:31 | 50.18751 | -95.29977 | 39738 ft | 494 kts | 231° |
| 2026-05-08 19:31 | 50.14077 | -95.37856 | 39744 ft | 494 kts | 231° |
| 2026-05-08 19:32 | 50.09397 | -95.45719 | 39740 ft | 494 kts | 231° |
| 2026-05-08 19:32 | 50.04745 | -95.53509 | 39733 ft | 494 kts | 231° |
| 2026-05-08 19:33 | 50.00068 | -95.61320 | 39743 ft | 494 kts | 231° |
| 2026-05-08 19:33 | 49.95380 | -95.69125 | 39742 ft | 494 kts | 231° |
| 2026-05-08 19:34 | 49.90687 | -95.76914 | 39736 ft | 494 kts | 231° |
| 2026-05-08 19:34 | 49.85984 | -95.84694 | 39731 ft | 494 kts | 231° |
| 2026-05-08 19:35 | 49.81282 | -95.92451 | 39707 ft | 494 kts | 231° |
| 2026-05-08 19:35 | 49.76568 | -96.00202 | 39736 ft | 494 kts | 231° |
| 2026-05-08 19:36 | 49.71854 | -96.07931 | 39738 ft | 494 kts | 231° |
| 2026-05-08 19:36 | 49.67133 | -96.15649 | 39733 ft | 494 kts | 231° |
| 2026-05-08 19:37 | 49.62447 | -96.23286 | 39733 ft | 494 kts | 231° |
| 2026-05-08 19:37 | 49.57719 | -96.30967 | 39720 ft | 494 kts | 231° |
| 2026-05-08 19:38 | 49.52980 | -96.38644 | 39735 ft | 494 kts | 231° |
| 2026-05-08 19:38 | 49.48232 | -96.46312 | 39743 ft | 494 kts | 231° |
| 2026-05-08 19:39 | 49.43483 | -96.53959 | 39740 ft | 494 kts | 231° |
| 2026-05-08 19:39 | 49.38729 | -96.61591 | 39754 ft | 494 kts | 231° |
| 2026-05-08 19:40 | 49.33970 | -96.69207 | 39733 ft | 494 kts | 231° |
| 2026-05-08 19:40 | 49.29234 | -96.76763 | 39757 ft | 494 kts | 231° |
| 2026-05-08 19:41 | 49.24465 | -96.84353 | 39758 ft | 494 kts | 231° |
| 2026-05-08 19:41 | 49.19680 | -96.91943 | 39757 ft | 494 kts | 231° |
| 2026-05-08 19:42 | 49.14904 | -96.99497 | 39763 ft | 494 kts | 231° |
| 2026-05-08 19:42 | 49.10120 | -97.07042 | 39763 ft | 494 kts | 231° |
| 2026-05-08 19:43 | 49.05325 | -97.14579 | 39764 ft | 494 kts | 231° |
| 2026-05-08 19:43 | 49.00537 | -97.22084 | 39762 ft | 494 kts | 231° |
| 2026-05-08 19:44 | 48.95743 | -97.29580 | 39765 ft | 494 kts | 231° |
| 2026-05-08 19:44 | 48.90973 | -97.37015 | 39762 ft | 494 kts | 231° |
| 2026-05-08 19:45 | 48.86167 | -97.44481 | 39774 ft | 494 kts | 231° |
| 2026-05-08 19:45 | 48.81356 | -97.51936 | 39763 ft | 494 kts | 231° |
| 2026-05-08 19:46 | 48.76536 | -97.59382 | 39774 ft | 494 kts | 231° |
| 2026-05-08 19:46 | 48.70116 | -97.69267 | 39774 ft | 494 kts | 231° |
| 2026-05-08 19:47 | 48.64504 | -97.77877 | 39776 ft | 494 kts | 230° |
| 2026-05-08 19:47 | 48.59670 | -97.85270 | 39771 ft | 494 kts | 231° |
| 2026-05-08 19:48 | 48.55640 | -97.91415 | 39779 ft | 494 kts | 231° |
| 2026-05-08 19:48 | 48.50829 | -97.98828 | 39785 ft | 492 kts | 234° |
| 2026-05-08 19:49 | 48.46638 | -98.06906 | 39787 ft | 488 kts | 239° |
| 2026-05-08 19:49 | 48.42630 | -98.15154 | 39793 ft | 487 kts | 239° |
| 2026-05-08 19:50 | 48.38646 | -98.23422 | 39796 ft | 487 kts | 239° |
| 2026-05-08 19:50 | 48.34652 | -98.31660 | 39792 ft | 487 kts | 239° |
| 2026-05-08 19:51 | 48.30641 | -98.39883 | 39796 ft | 487 kts | 239° |
| 2026-05-08 19:51 | 48.26629 | -98.48075 | 39800 ft | 487 kts | 239° |
| 2026-05-08 19:52 | 48.22630 | -98.56213 | 39796 ft | 487 kts | 239° |
| 2026-05-08 19:52 | 48.18597 | -98.64399 | 39794 ft | 487 kts | 239° |
| 2026-05-08 19:53 | 48.14565 | -98.72559 | 39789 ft | 487 kts | 239° |
| 2026-05-08 19:53 | 48.10528 | -98.80704 | 39785 ft | 487 kts | 239° |
| 2026-05-08 19:54 | 48.06512 | -98.88783 | 39784 ft | 487 kts | 239° |
| 2026-05-08 19:54 | 48.02461 | -98.96908 | 39779 ft | 487 kts | 239° |
| 2026-05-08 19:55 | 47.98401 | -99.05026 | 39798 ft | 487 kts | 239° |
| 2026-05-08 19:55 | 47.94338 | -99.13128 | 39809 ft | 487 kts | 239° |
| 2026-05-08 19:56 | 47.90268 | -99.21218 | 39820 ft | 487 kts | 239° |
| 2026-05-08 19:56 | 47.86192 | -99.29295 | 39833 ft | 487 kts | 239° |
| 2026-05-08 19:57 | 47.82135 | -99.37312 | 39828 ft | 488 kts | 239° |
| 2026-05-08 19:57 | 47.78052 | -99.45356 | 39842 ft | 488 kts | 239° |
| 2026-05-08 19:58 | 47.73962 | -99.53392 | 39840 ft | 488 kts | 238° |
| 2026-05-08 19:58 | 47.69862 | -99.61422 | 39838 ft | 488 kts | 238° |
| 2026-05-08 19:59 | 47.65756 | -99.69440 | 39823 ft | 488 kts | 239° |
| 2026-05-08 19:59 | 47.61641 | -99.77451 | 39848 ft | 488 kts | 239° |
| 2026-05-08 20:00 | 47.57520 | -99.85455 | 39841 ft | 488 kts | 239° |
| 2026-05-08 20:00 | 47.53397 | -99.93438 | 39845 ft | 488 kts | 239° |
| 2026-05-08 20:01 | 47.49038 | -100.01191 | 39846 ft | 494 kts | 231° |
| 2026-05-08 20:01 | 47.44088 | -100.08287 | 39838 ft | 497 kts | 230° |
| 2026-05-08 20:02 | 47.39029 | -100.15240 | 39847 ft | 497 kts | 229° |
| 2026-05-08 20:02 | 47.33988 | -100.22129 | 39839 ft | 497 kts | 229° |
| 2026-05-08 20:03 | 47.28920 | -100.29070 | 39840 ft | 497 kts | 230° |
| 2026-05-08 20:03 | 47.23854 | -100.36007 | 39842 ft | 497 kts | 230° |
| 2026-05-08 20:04 | 47.18782 | -100.42932 | 39841 ft | 497 kts | 230° |
| 2026-05-08 20:04 | 47.13714 | -100.49839 | 39846 ft | 497 kts | 230° |
| 2026-05-08 20:05 | 47.08643 | -100.56729 | 39843 ft | 497 kts | 230° |
| 2026-05-08 20:05 | 47.03569 | -100.63605 | 39848 ft | 497 kts | 230° |
| 2026-05-08 20:06 | 46.98480 | -100.70481 | 39848 ft | 497 kts | 230° |
| 2026-05-08 20:06 | 46.93389 | -100.77338 | 39847 ft | 497 kts | 230° |
| 2026-05-08 20:07 | 46.88324 | -100.84145 | 39848 ft | 497 kts | 230° |
| 2026-05-08 20:07 | 46.83234 | -100.90969 | 39849 ft | 497 kts | 230° |
| 2026-05-08 20:08 | 46.78134 | -100.97785 | 39851 ft | 497 kts | 230° |
| 2026-05-08 20:08 | 46.73027 | -101.04592 | 39840 ft | 497 kts | 230° |
| 2026-05-08 20:09 | 46.67907 | -101.11398 | 39860 ft | 498 kts | 230° |
| 2026-05-08 20:09 | 46.62787 | -101.18188 | 39852 ft | 498 kts | 230° |
| 2026-05-08 20:10 | 46.57697 | -101.24919 | 39870 ft | 498 kts | 230° |
| 2026-05-08 20:10 | 46.52571 | -101.31680 | 39871 ft | 498 kts | 230° |
| 2026-05-08 20:11 | 46.47436 | -101.38433 | 39862 ft | 498 kts | 230° |
| 2026-05-08 20:11 | 46.42299 | -101.45171 | 39880 ft | 498 kts | 230° |
| 2026-05-08 20:12 | 46.37157 | -101.51899 | 39877 ft | 498 kts | 230° |
| 2026-05-08 20:12 | 46.32010 | -101.58616 | 39875 ft | 498 kts | 230° |
| 2026-05-08 20:13 | 46.26862 | -101.65316 | 39895 ft | 498 kts | 230° |
| 2026-05-08 20:13 | 46.21743 | -101.71960 | 39901 ft | 498 kts | 230° |
| 2026-05-08 20:14 | 46.16589 | -101.78634 | 39887 ft | 498 kts | 230° |
| 2026-05-08 20:14 | 46.11422 | -101.85305 | 39891 ft | 498 kts | 230° |
| 2026-05-08 20:15 | 46.06258 | -101.91957 | 39902 ft | 498 kts | 230° |
| 2026-05-08 20:15 | 46.01085 | -101.98601 | 39887 ft | 498 kts | 230° |
| 2026-05-08 20:16 | 45.95997 | -102.05317 | 39900 ft | 495 kts | 232° |
| 2026-05-08 20:16 | 45.91070 | -102.12204 | 39892 ft | 494 kts | 232° |
| 2026-05-08 20:17 | 45.86146 | -102.19086 | 39897 ft | 494 kts | 232° |
| 2026-05-08 20:17 | 45.81191 | -102.25928 | 39907 ft | 494 kts | 232° |
| 2026-05-08 20:18 | 45.76227 | -102.32729 | 39906 ft | 494 kts | 232° |
| 2026-05-08 20:18 | 45.71258 | -102.39513 | 39914 ft | 493 kts | 232° |
| 2026-05-08 20:19 | 45.66286 | -102.46288 | 39914 ft | 494 kts | 232° |
| 2026-05-08 20:19 | 45.61337 | -102.53018 | 40096 ft | 495 kts | 232° |
| 2026-05-08 20:20 | 45.58809 | -102.56448 | 40356 ft | 493 kts | 232° |
| 2026-05-08 20:20 | 45.56358 | -102.59766 | 40579 ft | 492 kts | 231° |
| 2026-05-08 20:20 | 45.53877 | -102.63122 | 40824 ft | 490 kts | 231° |
| 2026-05-08 20:20 | 45.51402 | -102.66466 | 41026 ft | 490 kts | 231° |
| 2026-05-08 20:21 | 45.48929 | -102.69806 | 41195 ft | 490 kts | 231° |
| 2026-05-08 20:21 | 45.46452 | -102.73147 | 41373 ft | 490 kts | 231° |
| 2026-05-08 20:21 | 45.43973 | -102.76486 | 41526 ft | 490 kts | 231° |
| 2026-05-08 20:21 | 45.41496 | -102.79819 | 41685 ft | 490 kts | 231° |
| 2026-05-08 20:22 | 45.39017 | -102.83147 | 41843 ft | 490 kts | 231° |
| 2026-05-08 20:22 | 45.36537 | -102.86475 | 42017 ft | 490 kts | 230° |
| 2026-05-08 20:22 | 45.34056 | -102.89797 | 42143 ft | 490 kts | 230° |
| 2026-05-08 20:22 | 45.32372 | -102.92051 | 42248 ft | 489 kts | 230° |
| 2026-05-08 20:23 | 45.29092 | -102.96433 | 42453 ft | 489 kts | 230° |
| 2026-05-08 20:23 | 45.26613 | -102.99742 | 42599 ft | 489 kts | 230° |
| 2026-05-08 20:23 | 45.24132 | -103.03050 | 42739 ft | 489 kts | 230° |
| 2026-05-08 20:23 | 45.21652 | -103.06352 | 42865 ft | 489 kts | 230° |
| 2026-05-08 20:24 | 45.16680 | -103.12960 | 42910 ft | 490 kts | 230° |
| 2026-05-08 20:24 | 45.11708 | -103.19548 | 42900 ft | 490 kts | 230° |
| 2026-05-08 20:25 | 45.06735 | -103.26122 | 42903 ft | 489 kts | 230° |
| 2026-05-08 20:25 | 45.01754 | -103.32691 | 42919 ft | 489 kts | 230° |
| 2026-05-08 20:26 | 44.96769 | -103.39250 | 42910 ft | 489 kts | 229° |
| 2026-05-08 20:26 | 44.91787 | -103.45786 | 42872 ft | 489 kts | 229° |
| 2026-05-08 20:27 | 44.86798 | -103.52317 | 42914 ft | 489 kts | 229° |
| 2026-05-08 20:27 | 44.81810 | -103.58830 | 42914 ft | 489 kts | 229° |
| 2026-05-08 20:28 | 44.76820 | -103.65330 | 42929 ft | 489 kts | 229° |
| 2026-05-08 20:28 | 44.71856 | -103.71780 | 42943 ft | 489 kts | 229° |
| 2026-05-08 20:29 | 44.66853 | -103.78264 | 42957 ft | 489 kts | 229° |
| 2026-05-08 20:29 | 44.61847 | -103.84736 | 42968 ft | 488 kts | 229° |
| 2026-05-08 20:30 | 44.56843 | -103.91191 | 42974 ft | 488 kts | 229° |
| 2026-05-08 20:30 | 44.51837 | -103.97632 | 42963 ft | 488 kts | 229° |
| 2026-05-08 20:31 | 44.46874 | -104.04118 | 42952 ft | 487 kts | 231° |
| 2026-05-08 20:31 | 44.42068 | -104.10803 | 42944 ft | 486 kts | 232° |
| 2026-05-08 20:32 | 44.37312 | -104.17453 | 42941 ft | 486 kts | 231° |
| 2026-05-08 20:32 | 44.32494 | -104.24110 | 42942 ft | 487 kts | 231° |
| 2026-05-08 20:33 | 44.27659 | -104.30737 | 42904 ft | 487 kts | 231° |
| 2026-05-08 20:33 | 44.23638 | -104.36227 | 42935 ft | 487 kts | 231° |
| 2026-05-08 20:34 | 44.18797 | -104.42823 | 42941 ft | 487 kts | 231° |
| 2026-05-08 20:35 | 44.11524 | -104.52709 | 42951 ft | 487 kts | 231° |
| 2026-05-08 20:35 | 44.06671 | -104.59287 | 42951 ft | 487 kts | 231° |
| 2026-05-08 20:36 | 44.01818 | -104.65848 | 42944 ft | 486 kts | 230° |
| 2026-05-08 20:36 | 43.96970 | -104.72386 | 42937 ft | 486 kts | 230° |
| 2026-05-08 20:37 | 43.92109 | -104.78928 | 42928 ft | 486 kts | 230° |
| 2026-05-08 20:37 | 43.87253 | -104.85447 | 42925 ft | 486 kts | 230° |
| 2026-05-08 20:38 | 43.82419 | -104.91920 | 42933 ft | 486 kts | 230° |
| 2026-05-08 20:38 | 43.77547 | -104.98429 | 42926 ft | 486 kts | 230° |
| 2026-05-08 20:39 | 43.72682 | -105.04914 | 42929 ft | 486 kts | 230° |
| 2026-05-08 20:39 | 43.67801 | -105.11403 | 42927 ft | 486 kts | 230° |
| 2026-05-08 20:40 | 43.62921 | -105.17875 | 42928 ft | 487 kts | 230° |
| 2026-05-08 20:40 | 43.58037 | -105.24339 | 42924 ft | 487 kts | 230° |
| 2026-05-08 20:41 | 43.53147 | -105.30795 | 42910 ft | 487 kts | 230° |
| 2026-05-08 20:41 | 43.48239 | -105.37260 | 42930 ft | 488 kts | 230° |
| 2026-05-08 20:42 | 43.43343 | -105.43693 | 42928 ft | 488 kts | 230° |
| 2026-05-08 20:42 | 43.38425 | -105.50139 | 42927 ft | 488 kts | 230° |
| 2026-05-08 20:43 | 43.33507 | -105.56570 | 42935 ft | 488 kts | 230° |
| 2026-05-08 20:43 | 43.28582 | -105.62995 | 42919 ft | 488 kts | 230° |
| 2026-05-08 20:44 | 43.23647 | -105.69420 | 42932 ft | 489 kts | 230° |
| 2026-05-08 20:44 | 43.18708 | -105.75833 | 42933 ft | 489 kts | 230° |
| 2026-05-08 20:45 | 43.13759 | -105.82246 | 42937 ft | 489 kts | 230° |
| 2026-05-08 20:45 | 43.08812 | -105.88639 | 42930 ft | 489 kts | 229° |
| 2026-05-08 20:46 | 43.03890 | -105.94986 | 42936 ft | 489 kts | 229° |
| 2026-05-08 20:46 | 42.98932 | -106.01368 | 42933 ft | 489 kts | 230° |
| 2026-05-08 20:47 | 42.94009 | -106.07780 | 42970 ft | 489 kts | 230° |
| 2026-05-08 20:47 | 42.89098 | -106.14204 | 42995 ft | 489 kts | 230° |
| 2026-05-08 20:48 | 42.84181 | -106.20611 | 42942 ft | 489 kts | 230° |
| 2026-05-08 20:48 | 42.79256 | -106.27003 | 42943 ft | 489 kts | 230° |
| 2026-05-08 20:49 | 42.74322 | -106.33389 | 42943 ft | 489 kts | 230° |
| 2026-05-08 20:49 | 42.69394 | -106.39752 | 42943 ft | 489 kts | 229° |
| 2026-05-08 20:50 | 42.64459 | -106.46109 | 42945 ft | 489 kts | 229° |
| 2026-05-08 20:50 | 42.59517 | -106.52461 | 42937 ft | 489 kts | 229° |
| 2026-05-08 20:51 | 42.54579 | -106.58793 | 42938 ft | 489 kts | 229° |
| 2026-05-08 20:51 | 42.49660 | -106.65086 | 42944 ft | 489 kts | 229° |
| 2026-05-08 20:52 | 42.44714 | -106.71400 | 42929 ft | 489 kts | 229° |
| 2026-05-08 20:52 | 42.39765 | -106.77704 | 42942 ft | 488 kts | 229° |
| 2026-05-08 20:53 | 42.34816 | -106.83992 | 42946 ft | 487 kts | 229° |
| 2026-05-08 20:53 | 42.29873 | -106.90259 | 42946 ft | 487 kts | 229° |
| 2026-05-08 20:54 | 42.24922 | -106.96523 | 42942 ft | 487 kts | 229° |
| 2026-05-08 20:54 | 42.19976 | -107.02764 | 42941 ft | 487 kts | 229° |
| 2026-05-08 20:55 | 42.15017 | -107.09009 | 42942 ft | 487 kts | 229° |
| 2026-05-08 20:55 | 42.10068 | -107.15229 | 42979 ft | 487 kts | 229° |
| 2026-05-08 20:56 | 42.05111 | -107.21443 | 43007 ft | 487 kts | 229° |
| 2026-05-08 20:56 | 42.00185 | -107.27605 | 43032 ft | 487 kts | 229° |
| 2026-05-08 20:57 | 41.95222 | -107.33799 | 43049 ft | 487 kts | 229° |
| 2026-05-08 20:57 | 41.90246 | -107.39996 | 43020 ft | 487 kts | 228° |
| 2026-05-08 20:58 | 41.85269 | -107.46181 | 43033 ft | 487 kts | 228° |
| 2026-05-08 20:58 | 41.80294 | -107.52348 | 43011 ft | 487 kts | 228° |
| 2026-05-08 20:59 | 41.75313 | -107.58511 | 42981 ft | 487 kts | 228° |
| 2026-05-08 20:59 | 41.70410 | -107.64677 | 42946 ft | 487 kts | 229° |
| 2026-05-08 21:00 | 41.65484 | -107.70894 | 42939 ft | 487 kts | 229° |
| 2026-05-08 21:00 | 41.60548 | -107.77099 | 42943 ft | 487 kts | 228° |
| 2026-05-08 21:01 | 41.55608 | -107.83293 | 42934 ft | 487 kts | 228° |
| 2026-05-08 21:01 | 41.50668 | -107.89472 | 42937 ft | 487 kts | 228° |
| 2026-05-08 21:02 | 41.45725 | -107.95639 | 42934 ft | 487 kts | 228° |
| 2026-05-08 21:02 | 41.40772 | -108.01807 | 42939 ft | 487 kts | 228° |
| 2026-05-08 21:03 | 41.35822 | -108.07957 | 42927 ft | 487 kts | 228° |
| 2026-05-08 21:03 | 41.30901 | -108.14059 | 42941 ft | 487 kts | 228° |
| 2026-05-08 21:04 | 41.25939 | -108.20197 | 42938 ft | 487 kts | 228° |
| 2026-05-08 21:04 | 41.20944 | -108.26362 | 42938 ft | 487 kts | 228° |
| 2026-05-08 21:05 | 41.16010 | -108.32440 | 42942 ft | 487 kts | 228° |
| 2026-05-08 21:05 | 41.11039 | -108.38549 | 42933 ft | 487 kts | 228° |
| 2026-05-08 21:06 | 41.06068 | -108.44645 | 42918 ft | 487 kts | 227° |
| 2026-05-08 21:06 | 41.01095 | -108.50731 | 42928 ft | 487 kts | 227° |
| 2026-05-08 21:07 | 40.96116 | -108.56812 | 42928 ft | 487 kts | 227° |
| 2026-05-08 21:07 | 40.91133 | -108.62883 | 42921 ft | 487 kts | 227° |
| 2026-05-08 21:08 | 40.86149 | -108.68943 | 42906 ft | 487 kts | 227° |
| 2026-05-08 21:08 | 40.81194 | -108.74954 | 42925 ft | 487 kts | 227° |
| 2026-05-08 21:09 | 40.76197 | -108.81004 | 42922 ft | 487 kts | 227° |
| 2026-05-08 21:09 | 40.71194 | -108.87049 | 42927 ft | 487 kts | 227° |
| 2026-05-08 21:10 | 40.66190 | -108.93082 | 42917 ft | 487 kts | 227° |
| 2026-05-08 21:10 | 40.61184 | -108.99105 | 42933 ft | 487 kts | 227° |
| 2026-05-08 21:11 | 40.56170 | -109.05124 | 42934 ft | 489 kts | 227° |
| 2026-05-08 21:11 | 40.51145 | -109.11145 | 42942 ft | 489 kts | 227° |
| 2026-05-08 21:12 | 40.46139 | -109.17129 | 42969 ft | 490 kts | 227° |
| 2026-05-08 21:12 | 40.41077 | -109.23165 | 42983 ft | 491 kts | 227° |
| 2026-05-08 21:13 | 40.36026 | -109.29177 | 42988 ft | 491 kts | 227° |
| 2026-05-08 21:13 | 40.30961 | -109.35194 | 42992 ft | 490 kts | 226° |
| 2026-05-08 21:14 | 40.25906 | -109.41184 | 42978 ft | 490 kts | 226° |
| 2026-05-08 21:14 | 40.20852 | -109.47162 | 42939 ft | 490 kts | 226° |
| 2026-05-08 21:15 | 40.15787 | -109.53140 | 42917 ft | 490 kts | 226° |
| 2026-05-08 21:15 | 40.10719 | -109.59109 | 42883 ft | 490 kts | 226° |
| 2026-05-08 21:16 | 40.05686 | -109.65025 | 42861 ft | 490 kts | 226° |
| 2026-05-08 21:16 | 40.00624 | -109.70962 | 42850 ft | 489 kts | 226° |
| 2026-05-08 21:17 | 39.95562 | -109.76887 | 42873 ft | 489 kts | 226° |
| 2026-05-08 21:17 | 39.90497 | -109.82804 | 42869 ft | 489 kts | 226° |
| 2026-05-08 21:18 | 39.85425 | -109.88715 | 42874 ft | 489 kts | 226° |
| 2026-05-08 21:18 | 39.80349 | -109.94620 | 42882 ft | 489 kts | 226° |
| 2026-05-08 21:19 | 39.75307 | -110.00473 | 42900 ft | 489 kts | 226° |
| 2026-05-08 21:19 | 39.70229 | -110.06355 | 42899 ft | 489 kts | 226° |
| 2026-05-08 21:20 | 39.65148 | -110.12230 | 42911 ft | 489 kts | 226° |
| 2026-05-08 21:20 | 39.60069 | -110.18089 | 42907 ft | 489 kts | 226° |
| 2026-05-08 21:21 | 39.55838 | -110.22961 | 42902 ft | 489 kts | 226° |
| 2026-05-08 21:21 | 39.50747 | -110.28814 | 42900 ft | 489 kts | 225° |
| 2026-05-08 21:22 | 39.45651 | -110.34659 | 42904 ft | 489 kts | 225° |
| 2026-05-08 21:22 | 39.40552 | -110.40495 | 42891 ft | 490 kts | 225° |
| 2026-05-08 21:23 | 39.35443 | -110.46332 | 42885 ft | 490 kts | 225° |
| 2026-05-08 21:23 | 39.30368 | -110.52118 | 42870 ft | 490 kts | 225° |
| 2026-05-08 21:24 | 39.25250 | -110.57942 | 42879 ft | 491 kts | 225° |
| 2026-05-08 21:24 | 39.20119 | -110.63767 | 42879 ft | 491 kts | 225° |
| 2026-05-08 21:25 | 39.14983 | -110.69588 | 42874 ft | 491 kts | 225° |
| 2026-05-08 21:25 | 39.09849 | -110.75394 | 42895 ft | 491 kts | 225° |
| 2026-05-08 21:26 | 39.04711 | -110.81193 | 42884 ft | 491 kts | 225° |
| 2026-05-08 21:26 | 38.99560 | -110.86993 | 42899 ft | 492 kts | 225° |
| 2026-05-08 21:27 | 38.94402 | -110.92791 | 42913 ft | 492 kts | 225° |
| 2026-05-08 21:27 | 38.89270 | -110.98549 | 42900 ft | 492 kts | 225° |
| 2026-05-08 21:28 | 38.84104 | -111.04334 | 42920 ft | 493 kts | 225° |
| 2026-05-08 21:28 | 38.78938 | -111.10106 | 42922 ft | 493 kts | 225° |
| 2026-05-08 21:29 | 38.73771 | -111.15867 | 42927 ft | 493 kts | 224° |
| 2026-05-08 21:29 | 38.68587 | -111.21636 | 42926 ft | 493 kts | 224° |
| 2026-05-08 21:30 | 38.63403 | -111.27394 | 42941 ft | 493 kts | 224° |
| 2026-05-08 21:30 | 38.58217 | -111.33142 | 42943 ft | 493 kts | 224° |
| 2026-05-08 21:31 | 38.53059 | -111.38849 | 42942 ft | 494 kts | 224° |
| 2026-05-08 21:31 | 38.47861 | -111.44587 | 42963 ft | 494 kts | 224° |
| 2026-05-08 21:32 | 38.42665 | -111.50312 | 42963 ft | 493 kts | 224° |
| 2026-05-08 21:32 | 38.37467 | -111.56029 | 42984 ft | 493 kts | 224° |
| 2026-05-08 21:33 | 38.32267 | -111.61737 | 42978 ft | 493 kts | 224° |
| 2026-05-08 21:33 | 38.27066 | -111.67434 | 42979 ft | 493 kts | 224° |
| 2026-05-08 21:34 | 38.21865 | -111.73121 | 42977 ft | 493 kts | 224° |
| 2026-05-08 21:34 | 38.16654 | -111.78806 | 42970 ft | 493 kts | 224° |
| 2026-05-08 21:35 | 38.11488 | -111.84431 | 42971 ft | 491 kts | 224° |
| 2026-05-08 21:35 | 38.06007 | -111.89621 | 42970 ft | 494 kts | 211° |
| 2026-05-08 21:36 | 37.99625 | -111.92991 | 42962 ft | 498 kts | 202° |
| 2026-05-08 21:36 | 37.93082 | -111.95902 | 43053 ft | 499 kts | 201° |
| 2026-05-08 21:37 | 37.86531 | -111.98804 | 43109 ft | 497 kts | 201° |
| 2026-05-08 21:37 | 37.80035 | -112.01680 | 43019 ft | 497 kts | 201° |
| 2026-05-08 21:37 | 37.76811 | -112.03106 | 42779 ft | 497 kts | 201° |
| 2026-05-08 21:38 | 37.73511 | -112.04564 | 42525 ft | 497 kts | 201° |
| 2026-05-08 21:38 | 37.70244 | -112.06008 | 42247 ft | 498 kts | 201° |
| 2026-05-08 21:38 | 37.66974 | -112.07451 | 41965 ft | 498 kts | 202° |
| 2026-05-08 21:38 | 37.63702 | -112.08892 | 41713 ft | 497 kts | 202° |
| 2026-05-08 21:39 | 37.60438 | -112.10334 | 41439 ft | 497 kts | 202° |
| 2026-05-08 21:39 | 37.57263 | -112.12034 | 41142 ft | 494 kts | 210° |
| 2026-05-08 21:39 | 37.54358 | -112.14303 | 40848 ft | 489 kts | 220° |
| 2026-05-08 21:39 | 37.51838 | -112.17146 | 40553 ft | 483 kts | 233° |
| 2026-05-08 21:40 | 37.49804 | -112.20490 | 40289 ft | 479 kts | 239° |
| 2026-05-08 21:40 | 37.47941 | -112.23949 | 40018 ft | 479 kts | 240° |
| 2026-05-08 21:40 | 37.46102 | -112.27454 | 39743 ft | 478 kts | 240° |
| 2026-05-08 21:41 | 37.42476 | -112.34416 | 39209 ft | 478 kts | 240° |
| 2026-05-08 21:41 | 37.40634 | -112.37957 | 38942 ft | 478 kts | 240° |
| 2026-05-08 21:41 | 37.38837 | -112.41409 | 38714 ft | 478 kts | 240° |
| 2026-05-08 21:41 | 37.37015 | -112.44908 | 38428 ft | 477 kts | 240° |
| 2026-05-08 21:42 | 37.35199 | -112.48393 | 38138 ft | 477 kts | 240° |
| 2026-05-08 21:42 | 37.33380 | -112.51880 | 37866 ft | 477 kts | 240° |
| 2026-05-08 21:42 | 37.31556 | -112.55373 | 37592 ft | 478 kts | 240° |
| 2026-05-08 21:42 | 37.29726 | -112.58874 | 37324 ft | 478 kts | 240° |
| 2026-05-08 21:43 | 37.27898 | -112.62367 | 37066 ft | 479 kts | 240° |
| 2026-05-08 21:43 | 37.26069 | -112.65860 | 36799 ft | 480 kts | 240° |
| 2026-05-08 21:43 | 37.24230 | -112.69366 | 36536 ft | 480 kts | 240° |
| 2026-05-08 21:43 | 37.22394 | -112.72869 | 36281 ft | 481 kts | 240° |
| 2026-05-08 21:44 | 37.20550 | -112.76384 | 36057 ft | 481 kts | 240° |
| 2026-05-08 21:44 | 37.18706 | -112.79886 | 35805 ft | 482 kts | 239° |
| 2026-05-08 21:44 | 37.16855 | -112.83397 | 35582 ft | 482 kts | 239° |
| 2026-05-08 21:44 | 37.15032 | -112.86851 | 35357 ft | 482 kts | 239° |
| 2026-05-08 21:45 | 37.13176 | -112.90366 | 35134 ft | 483 kts | 239° |
| 2026-05-08 21:45 | 37.11321 | -112.93877 | 34916 ft | 484 kts | 239° |
| 2026-05-08 21:45 | 37.09462 | -112.97392 | 34691 ft | 484 kts | 239° |
| 2026-05-08 21:45 | 37.07596 | -113.00916 | 34476 ft | 485 kts | 239° |
| 2026-05-08 21:46 | 37.05732 | -113.04431 | 34245 ft | 485 kts | 239° |
| 2026-05-08 21:46 | 37.03863 | -113.07954 | 33996 ft | 486 kts | 239° |
| 2026-05-08 21:46 | 37.01995 | -113.11472 | 33733 ft | 487 kts | 238° |
| 2026-05-08 21:46 | 37.00111 | -113.15015 | 33449 ft | 488 kts | 238° |
| 2026-05-08 21:47 | 36.98232 | -113.18547 | 33160 ft | 489 kts | 238° |
| 2026-05-08 21:47 | 36.96345 | -113.22088 | 32880 ft | 490 kts | 238° |
| 2026-05-08 21:47 | 36.94456 | -113.25630 | 32597 ft | 490 kts | 238° |
| 2026-05-08 21:47 | 36.92567 | -113.29167 | 31869 ft | 488 kts | 238° |
| 2026-05-08 21:48 | 36.90684 | -113.32690 | 31168 ft | 484 kts | 238° |
| 2026-05-08 21:48 | 36.88822 | -113.36168 | 30521 ft | 479 kts | 238° |
| 2026-05-08 21:48 | 36.86977 | -113.39611 | 29861 ft | 475 kts | 238° |
| 2026-05-08 21:48 | 36.85169 | -113.42984 | 29145 ft | 471 kts | 238° |
| 2026-05-08 21:49 | 36.83357 | -113.46360 | 28565 ft | 465 kts | 238° |
| 2026-05-08 21:49 | 36.81563 | -113.49699 | 28060 ft | 463 kts | 238° |
| 2026-05-08 21:49 | 36.79748 | -113.53086 | 27429 ft | 462 kts | 239° |
| 2026-05-08 21:49 | 36.77989 | -113.56368 | 26742 ft | 459 kts | 239° |
| 2026-05-08 21:50 | 36.76224 | -113.59657 | 26103 ft | 455 kts | 238° |
| 2026-05-08 21:50 | 36.74469 | -113.62923 | 25488 ft | 451 kts | 239° |
| 2026-05-08 21:50 | 36.72731 | -113.66155 | 24874 ft | 447 kts | 238° |
| 2026-05-08 21:50 | 36.71005 | -113.69360 | 24268 ft | 444 kts | 238° |
| 2026-05-08 21:51 | 36.69296 | -113.72534 | 23664 ft | 441 kts | 239° |
| 2026-05-08 21:51 | 36.67588 | -113.75701 | 22978 ft | 438 kts | 238° |
| 2026-05-08 21:51 | 36.65900 | -113.78831 | 22356 ft | 433 kts | 238° |
| 2026-05-08 21:51 | 36.64223 | -113.81935 | 21726 ft | 429 kts | 238° |
| 2026-05-08 21:52 | 36.62566 | -113.85000 | 21130 ft | 426 kts | 238° |
| 2026-05-08 21:52 | 36.60920 | -113.88042 | 20500 ft | 422 kts | 238° |
| 2026-05-08 21:52 | 36.59283 | -113.91065 | 19886 ft | 420 kts | 238° |
| 2026-05-08 21:52 | 36.57626 | -113.94040 | 19276 ft | 417 kts | 235° |
| 2026-05-08 21:53 | 36.55854 | -113.96885 | 18648 ft | 414 kts | 234° |
| 2026-05-08 21:53 | 36.54072 | -113.99689 | 18011 ft | 411 kts | 234° |
| 2026-05-08 21:53 | 36.52317 | -114.02467 | 17319 ft | 406 kts | 234° |
| 2026-05-08 21:53 | 36.50611 | -114.05187 | 16746 ft | 401 kts | 234° |
| 2026-05-08 21:54 | 36.48926 | -114.07883 | 16509 ft | 387 kts | 234° |
| 2026-05-08 21:54 | 36.47292 | -114.10500 | 16364 ft | 371 kts | 234° |
| 2026-05-08 21:54 | 36.45762 | -114.12951 | 16240 ft | 356 kts | 234° |
| 2026-05-08 21:54 | 36.44259 | -114.15361 | 16085 ft | 341 kts | 234° |
| 2026-05-08 21:55 | 36.42853 | -114.17616 | 15962 ft | 328 kts | 234° |
| 2026-05-08 21:55 | 36.41482 | -114.19815 | 15805 ft | 318 kts | 234° |
| 2026-05-08 21:55 | 36.40129 | -114.21986 | 15410 ft | 317 kts | 234° |
| 2026-05-08 21:56 | 36.37429 | -114.26288 | 14688 ft | 315 kts | 233° |
| 2026-05-08 21:56 | 36.36068 | -114.28411 | 14322 ft | 314 kts | 233° |
| 2026-05-08 21:56 | 36.34714 | -114.30526 | 13967 ft | 312 kts | 233° |
| 2026-05-08 21:56 | 36.33376 | -114.32618 | 13615 ft | 311 kts | 233° |
| 2026-05-08 21:57 | 36.32031 | -114.34723 | 13230 ft | 308 kts | 233° |
| 2026-05-08 21:57 | 36.30707 | -114.36794 | 12874 ft | 305 kts | 233° |
| 2026-05-08 21:57 | 36.29394 | -114.38849 | 12528 ft | 302 kts | 233° |
| 2026-05-08 21:57 | 36.28101 | -114.40871 | 12180 ft | 297 kts | 233° |
| 2026-05-08 21:58 | 36.26823 | -114.42870 | 11850 ft | 294 kts | 233° |
| 2026-05-08 21:58 | 36.25555 | -114.44853 | 11517 ft | 292 kts | 233° |
| 2026-05-08 21:58 | 36.24301 | -114.46807 | 11188 ft | 289 kts | 233° |
| 2026-05-08 21:58 | 36.23041 | -114.48736 | 10863 ft | 287 kts | 233° |
| 2026-05-08 21:59 | 36.21804 | -114.50625 | 10547 ft | 285 kts | 232° |
| 2026-05-08 21:59 | 36.20563 | -114.52523 | 10206 ft | 282 kts | 232° |
| 2026-05-08 21:59 | 36.19332 | -114.54403 | 9888 ft | 280 kts | 232° |
| 2026-05-08 21:59 | 36.18112 | -114.56282 | 9572 ft | 281 kts | 232° |
| 2026-05-08 22:00 | 36.16874 | -114.58176 | 9237 ft | 284 kts | 232° |
| 2026-05-08 22:00 | 36.15625 | -114.60081 | 8959 ft | 283 kts | 232° |
| 2026-05-08 22:00 | 36.14390 | -114.61977 | 8791 ft | 284 kts | 232° |
| 2026-05-08 22:00 | 36.13151 | -114.63868 | 8624 ft | 283 kts | 232° |
| 2026-05-08 22:01 | 36.11913 | -114.65754 | 8461 ft | 278 kts | 232° |
| 2026-05-08 22:01 | 36.10721 | -114.67569 | 8324 ft | 266 kts | 232° |
| 2026-05-08 22:01 | 36.09596 | -114.69281 | 8175 ft | 254 kts | 232° |
| 2026-05-08 22:01 | 36.08492 | -114.70962 | 8052 ft | 243 kts | 232° |
| 2026-05-08 22:02 | 36.07609 | -114.72655 | 7927 ft | 235 kts | 248° |
| 2026-05-08 22:02 | 36.07304 | -114.74619 | 7673 ft | 234 kts | 269° |
| 2026-05-08 22:02 | 36.07398 | -114.76638 | 7287 ft | 236 kts | 273° |
| 2026-05-08 22:02 | 36.07436 | -114.78670 | 6969 ft | 235 kts | 270° |
| 2026-05-08 22:03 | 36.07432 | -114.80644 | 6804 ft | 222 kts | 269° |
| 2026-05-08 22:03 | 36.07415 | -114.82516 | 6673 ft | 214 kts | 269° |
| 2026-05-08 22:03 | 36.07386 | -114.84342 | 6388 ft | 213 kts | 268° |
| 2026-05-08 22:03 | 36.07374 | -114.86161 | 6083 ft | 211 kts | 269° |
| 2026-05-08 22:04 | 36.07383 | -114.87975 | 5761 ft | 210 kts | 270° |
| 2026-05-08 22:04 | 36.07381 | -114.89774 | 5466 ft | 207 kts | 269° |
| 2026-05-08 22:04 | 36.07379 | -114.91529 | 5202 ft | 202 kts | 270° |
| 2026-05-08 22:04 | 36.07379 | -114.93241 | 4947 ft | 197 kts | 270° |
| 2026-05-08 22:05 | 36.07378 | -114.94894 | 4701 ft | 185 kts | 270° |
| 2026-05-08 22:05 | 36.07376 | -114.96411 | 4498 ft | 173 kts | 270° |
| 2026-05-08 22:05 | 36.07375 | -114.97849 | 4284 ft | 164 kts | 270° |
| 2026-05-08 22:05 | 36.07374 | -114.99226 | 4085 ft | 154 kts | 270° |
| 2026-05-08 22:06 | 36.07374 | -115.00501 | 3903 ft | 144 kts | 270° |
| 2026-05-08 22:06 | 36.07377 | -115.01713 | 3741 ft | 139 kts | 269° |
| 2026-05-08 22:06 | 36.07388 | -115.02907 | 3527 ft | 139 kts | 269° |
| 2026-05-08 22:06 | 36.07392 | -115.04091 | 3409 ft | 138 kts | 265° |
| 2026-05-08 22:07 | 36.07371 | -115.05261 | 3258 ft | 137 kts | 266° |
| 2026-05-08 22:07 | 36.07354 | -115.06443 | 3123 ft | 138 kts | 268° |
| 2026-05-08 22:07 | 36.07365 | -115.07614 | 2967 ft | 136 kts | 272° |
| 2026-05-08 22:07 | 36.07390 | -115.08814 | 2759 ft | 141 kts | 269° |
| 2026-05-08 22:08 | 36.07366 | -115.10042 | 2494 ft | 142 kts | 264° |
| 2026-05-08 22:08 | 36.07362 | -115.11234 | 2312 ft | 141 kts | 268° |
| 2026-05-08 22:08 | 36.07371 | -115.12438 | 2116 ft | 141 kts | 266° |
| 2026-05-08 22:08 | 36.07367 | -115.13593 | 2079 ft | 115 kts | 269° |
| 2026-05-08 22:09 | 36.07366 | -115.14078 | 2090 ft | 59 kts | 270° |
| 2026-05-08 22:09 | 36.07378 | -115.14312 | 2095 ft | 13 kts | 281° |
| 2026-05-08 22:09 | 36.07398 | -115.14399 | 2097 ft | 19 kts | 289° |
| 2026-05-08 22:09 | 36.07466 | -115.14574 | 2101 ft | 26 kts | 300° |
| 2026-05-08 22:10 | 36.07545 | -115.14652 | 2106 ft | 10 kts | 353° |
| 2026-05-08 22:10 | 36.07605 | -115.14654 | 2108 ft | 9 kts | 359° |
| 2026-05-08 22:10 | 36.07669 | -115.14653 | 2107 ft | 12 kts | 0° |
| 2026-05-08 22:10 | 36.07753 | -115.14625 | 2104 ft | 14 kts | 52° |
| 2026-05-08 22:11 | 36.07766 | -115.14504 | 2103 ft | 16 kts | 91° |
| 2026-05-08 22:11 | 36.07757 | -115.14360 | 2103 ft | 18 kts | 94° |
| 2026-05-08 22:11 | 36.07754 | -115.14196 | 2101 ft | 21 kts | 90° |
| 2026-05-08 22:11 | 36.07755 | -115.14021 | 2100 ft | 21 kts | 90° |
| 2026-05-08 22:12 | 36.07755 | -115.13857 | 2099 ft | 16 kts | 89° |
| 2026-05-08 22:12 | 36.07755 | -115.13706 | 2099 ft | 19 kts | 90° |
| 2026-05-08 22:12 | 36.07755 | -115.13533 | 2098 ft | 22 kts | 89° |
| 2026-05-08 22:12 | 36.07756 | -115.13441 | 2097 ft | 1 kts | 86° |
| 2026-05-08 22:13 | 36.07783 | -115.13385 | 2096 ft | 14 kts | 30° |
| 2026-05-08 22:13 | 36.07883 | -115.13375 | 2096 ft | 15 kts | 358° |
| 2026-05-08 22:13 | 36.07998 | -115.13376 | 2096 ft | 18 kts | 0° |
| 2026-05-08 22:13 | 36.08131 | -115.13375 | 2096 ft | 20 kts | 359° |
| 2026-05-08 22:14 | 36.08280 | -115.13376 | 2097 ft | 21 kts | 0° |
| 2026-05-08 22:14 | 36.08353 | -115.13409 | 2099 ft | 8 kts | 313° |
| 2026-05-08 22:14 | 36.08390 | -115.13465 | 2099 ft | 6 kts | 304° |
| 2026-05-08 22:14 | 36.08410 | -115.13513 | 2099 ft | 7 kts | 285° |
| 2026-05-08 22:15 | 36.08393 | -115.13564 | 2099 ft | 7 kts | 217° |
| 2026-05-08 22:15 | 36.08367 | -115.13573 | 2099 ft | 0 kts | 191° |
| 2026-05-08 22:15 | 36.08356 | -115.13576 | 2099 ft | 5 kts | 190° |